<?xml version='1.0' encoding='UTF-8'?><gpx version="1.1" creator="JPX - https://github.com/jenetics/jpx" xmlns="http://www.topografix.com/GPX/1/1"><trk><trkseg><trkpt lat="43.9327595" lon="10.2791666"><ele>24.0</ele><time>2026-04-19T13:20:48.513Z</time></trkpt><trkpt lat="43.9328291" lon="10.2792788"><ele>24.0</ele><time>2026-04-19T13:20:50.379Z</time></trkpt><trkpt lat="43.9329185" lon="10.2793788"><ele>24.0</ele><time>2026-04-19T13:20:52.398Z</time></trkpt><trkpt lat="43.9330135" lon="10.2794764"><ele>24.0</ele><time>2026-04-19T13:20:54.377Z</time></trkpt><trkpt lat="43.9331063" lon="10.2795761"><ele>24.0</ele><time>2026-04-19T13:20:56.382Z</time></trkpt><trkpt lat="43.9332024" lon="10.2796796"><ele>24.0</ele><time>2026-04-19T13:20:58.425Z</time></trkpt><trkpt lat="43.9332566" lon="10.2797345"><ele>24.0</ele><time>2026-04-19T13:20:59.783Z</time></trkpt><trkpt lat="43.9333573" lon="10.2798203"><ele>24.0</ele><time>2026-04-19T13:21:01.454Z</time></trkpt><trkpt lat="43.933412" lon="10.2798663"><ele>24.0</ele><time>2026-04-19T13:21:02.472Z</time></trkpt><trkpt lat="43.9334961" lon="10.2799417"><ele>24.666666666666668</ele><time>2026-04-19T13:21:04.509Z</time></trkpt><trkpt lat="43.9335694" lon="10.2800084"><ele>25.333333333333336</ele><time>2026-04-19T13:21:08.465Z</time></trkpt><trkpt lat="43.9336212" lon="10.2801104"><ele>26.0</ele><time>2026-04-19T13:21:11.497Z</time></trkpt><trkpt lat="43.9336673" lon="10.2801955"><ele>26.666666666666668</ele><time>2026-04-19T13:21:13.453Z</time></trkpt><trkpt lat="43.933707" lon="10.2802836"><ele>27.333333333333336</ele><time>2026-04-19T13:21:15.758Z</time></trkpt><trkpt lat="43.9336793" lon="10.2804098"><ele>28.0</ele><time>2026-04-19T13:21:17.423Z</time></trkpt><trkpt lat="43.9336289" lon="10.2804859"><ele>28.0</ele><time>2026-04-19T13:21:19.417Z</time></trkpt><trkpt lat="43.9335824" lon="10.2805615"><ele>27.999999999999996</ele><time>2026-04-19T13:21:29.746Z</time></trkpt><trkpt lat="43.93357" lon="10.2806712"><ele>27.999999999999996</ele><time>2026-04-19T13:21:33.395Z</time></trkpt><trkpt lat="43.933701" lon="10.2808442"><ele>28.0</ele><time>2026-04-19T13:21:36.476Z</time></trkpt><trkpt lat="43.9337767" lon="10.2809186"><ele>28.0</ele><time>2026-04-19T13:21:37.422Z</time></trkpt><trkpt lat="43.9338545" lon="10.2810018"><ele>26.4</ele><time>2026-04-19T13:21:38.524Z</time></trkpt><trkpt lat="43.9339322" lon="10.2810915"><ele>24.799999999999997</ele><time>2026-04-19T13:21:39.493Z</time></trkpt><trkpt lat="43.9340148" lon="10.2811903"><ele>23.2</ele><time>2026-04-19T13:21:40.44Z</time></trkpt><trkpt lat="43.9340992" lon="10.2812822"><ele>21.6</ele><time>2026-04-19T13:21:41.448Z</time></trkpt><trkpt lat="43.9341741" lon="10.2813697"><ele>20.0</ele><time>2026-04-19T13:21:42.438Z</time></trkpt><trkpt lat="43.934247" lon="10.281456"><ele>20.0</ele><time>2026-04-19T13:21:43.417Z</time></trkpt><trkpt lat="43.9343253" lon="10.2815453"><ele>20.0</ele><time>2026-04-19T13:21:44.438Z</time></trkpt><trkpt lat="43.9344081" lon="10.2816459"><ele>20.0</ele><time>2026-04-19T13:21:45.465Z</time></trkpt><trkpt lat="43.9344982" lon="10.2817501"><ele>20.0</ele><time>2026-04-19T13:21:46.458Z</time></trkpt><trkpt lat="43.9345909" lon="10.2818587"><ele>20.0</ele><time>2026-04-19T13:21:47.417Z</time></trkpt><trkpt lat="43.93468" lon="10.2819807"><ele>20.0</ele><time>2026-04-19T13:21:48.437Z</time></trkpt><trkpt lat="43.9347677" lon="10.2821162"><ele>20.0</ele><time>2026-04-19T13:21:49.665Z</time></trkpt><trkpt lat="43.9349102" lon="10.2823633"><ele>20.25</ele><time>2026-04-19T13:21:51.47Z</time></trkpt><trkpt lat="43.9349836" lon="10.2825102"><ele>20.5</ele><time>2026-04-19T13:21:52.466Z</time></trkpt><trkpt lat="43.9350577" lon="10.282668"><ele>20.75</ele><time>2026-04-19T13:21:53.525Z</time></trkpt><trkpt lat="43.9351177" lon="10.2828225"><ele>21.0</ele><time>2026-04-19T13:21:54.5Z</time></trkpt><trkpt lat="43.9351665" lon="10.2829859"><ele>21.5</ele><time>2026-04-19T13:21:55.467Z</time></trkpt><trkpt lat="43.9352157" lon="10.2831537"><ele>22.0</ele><time>2026-04-19T13:21:56.445Z</time></trkpt><trkpt lat="43.9352673" lon="10.2833143"><ele>22.5</ele><time>2026-04-19T13:21:57.392Z</time></trkpt><trkpt lat="43.9353265" lon="10.2834779"><ele>23.0</ele><time>2026-04-19T13:21:58.419Z</time></trkpt><trkpt lat="43.9353889" lon="10.2836339"><ele>23.0</ele><time>2026-04-19T13:21:59.422Z</time></trkpt><trkpt lat="43.9354641" lon="10.2837923"><ele>23.0</ele><time>2026-04-19T13:22:00.525Z</time></trkpt><trkpt lat="43.9355366" lon="10.2839421"><ele>23.0</ele><time>2026-04-19T13:22:01.456Z</time></trkpt><trkpt lat="43.9356125" lon="10.2841026"><ele>23.0</ele><time>2026-04-19T13:22:02.426Z</time></trkpt><trkpt lat="43.935681" lon="10.2842563"><ele>22.799999999999997</ele><time>2026-04-19T13:22:03.403Z</time></trkpt><trkpt lat="43.9357306" lon="10.2843968"><ele>22.6</ele><time>2026-04-19T13:22:04.411Z</time></trkpt><trkpt lat="43.9357679" lon="10.2845292"><ele>22.4</ele><time>2026-04-19T13:22:05.399Z</time></trkpt><trkpt lat="43.9358042" lon="10.2846629"><ele>22.200000000000003</ele><time>2026-04-19T13:22:06.475Z</time></trkpt><trkpt lat="43.9358298" lon="10.2847738"><ele>22.0</ele><time>2026-04-19T13:22:07.391Z</time></trkpt><trkpt lat="43.9358498" lon="10.284883"><ele>22.0</ele><time>2026-04-19T13:22:08.43Z</time></trkpt><trkpt lat="43.9358551" lon="10.2849947"><ele>22.0</ele><time>2026-04-19T13:22:09.41Z</time></trkpt><trkpt lat="43.9358533" lon="10.2850904"><ele>22.0</ele><time>2026-04-19T13:22:10.387Z</time></trkpt><trkpt lat="43.935855" lon="10.2852428"><ele>22.0</ele><time>2026-04-19T13:22:12.414Z</time></trkpt><trkpt lat="43.9359144" lon="10.2853295"><ele>22.0</ele><time>2026-04-19T13:22:14.403Z</time></trkpt><trkpt lat="43.9360203" lon="10.2853355"><ele>22.6</ele><time>2026-04-19T13:22:16.505Z</time></trkpt><trkpt lat="43.9361067" lon="10.2852341"><ele>23.200000000000003</ele><time>2026-04-19T13:22:18.389Z</time></trkpt><trkpt lat="43.9361495" lon="10.2850899"><ele>23.8</ele><time>2026-04-19T13:22:20.418Z</time></trkpt><trkpt lat="43.9361868" lon="10.2850142"><ele>24.4</ele><time>2026-04-19T13:22:21.417Z</time></trkpt><trkpt lat="43.936241" lon="10.2849425"><ele>25.0</ele><time>2026-04-19T13:22:22.458Z</time></trkpt><trkpt lat="43.936307" lon="10.2848622"><ele>25.000000000000004</ele><time>2026-04-19T13:22:23.388Z</time></trkpt><trkpt lat="43.9363707" lon="10.2847731"><ele>25.0</ele><time>2026-04-19T13:22:24.39Z</time></trkpt><trkpt lat="43.9364385" lon="10.2846874"><ele>25.0</ele><time>2026-04-19T13:22:25.393Z</time></trkpt><trkpt lat="43.9365074" lon="10.2846004"><ele>25.0</ele><time>2026-04-19T13:22:26.394Z</time></trkpt><trkpt lat="43.9365639" lon="10.2845069"><ele>25.000000000000004</ele><time>2026-04-19T13:22:27.378Z</time></trkpt><trkpt lat="43.9366153" lon="10.2844132"><ele>25.0</ele><time>2026-04-19T13:22:28.373Z</time></trkpt><trkpt lat="43.9366551" lon="10.2843235"><ele>25.333333333333336</ele><time>2026-04-19T13:22:29.388Z</time></trkpt><trkpt lat="43.9366927" lon="10.2842359"><ele>25.666666666666668</ele><time>2026-04-19T13:22:30.393Z</time></trkpt><trkpt lat="43.9367102" lon="10.2841217"><ele>26.0</ele><time>2026-04-19T13:22:31.39Z</time></trkpt><trkpt lat="43.9367215" lon="10.2839924"><ele>26.333333333333336</ele><time>2026-04-19T13:22:32.393Z</time></trkpt><trkpt lat="43.9367272" lon="10.2838584"><ele>26.666666666666668</ele><time>2026-04-19T13:22:33.393Z</time></trkpt><trkpt lat="43.9367318" lon="10.2837242"><ele>27.0</ele><time>2026-04-19T13:22:34.391Z</time></trkpt><trkpt lat="43.9367331" lon="10.2835973"><ele>28.0</ele><time>2026-04-19T13:22:35.419Z</time></trkpt><trkpt lat="43.9367274" lon="10.2834693"><ele>29.0</ele><time>2026-04-19T13:22:36.403Z</time></trkpt><trkpt lat="43.9367075" lon="10.283358"><ele>30.0</ele><time>2026-04-19T13:22:37.382Z</time></trkpt><trkpt lat="43.9366918" lon="10.2832563"><ele>31.0</ele><time>2026-04-19T13:22:38.397Z</time></trkpt><trkpt lat="43.9366433" lon="10.2831426"><ele>32.0</ele><time>2026-04-19T13:22:40.402Z</time></trkpt><trkpt lat="43.9366084" lon="10.283046"><ele>33.0</ele><time>2026-04-19T13:22:43.398Z</time></trkpt><trkpt lat="43.9366317" lon="10.2829374"><ele>34.833333333333336</ele><time>2026-04-19T13:22:46.413Z</time></trkpt><trkpt lat="43.9367006" lon="10.2829906"><ele>36.666666666666664</ele><time>2026-04-19T13:22:48.429Z</time></trkpt><trkpt lat="43.9367912" lon="10.2831129"><ele>38.5</ele><time>2026-04-19T13:22:50.387Z</time></trkpt><trkpt lat="43.9368512" lon="10.2831811"><ele>40.33333333333333</ele><time>2026-04-19T13:22:51.397Z</time></trkpt><trkpt lat="43.9369054" lon="10.2832413"><ele>42.166666666666664</ele><time>2026-04-19T13:22:52.381Z</time></trkpt><trkpt lat="43.9369577" lon="10.2833026"><ele>44.0</ele><time>2026-04-19T13:22:53.391Z</time></trkpt><trkpt lat="43.9370099" lon="10.2833944"><ele>45.33333333333333</ele><time>2026-04-19T13:22:54.394Z</time></trkpt><trkpt lat="43.9370444" lon="10.2835117"><ele>46.666666666666664</ele><time>2026-04-19T13:22:55.391Z</time></trkpt><trkpt lat="43.9370764" lon="10.2836198"><ele>48.0</ele><time>2026-04-19T13:22:56.389Z</time></trkpt><trkpt lat="43.9371044" lon="10.2836995"><ele>49.33333333333333</ele><time>2026-04-19T13:22:57.394Z</time></trkpt><trkpt lat="43.9371552" lon="10.283828"><ele>50.666666666666664</ele><time>2026-04-19T13:22:59.387Z</time></trkpt><trkpt lat="43.9372022" lon="10.2838903"><ele>52.0</ele><time>2026-04-19T13:23:01.415Z</time></trkpt><trkpt lat="43.9372645" lon="10.2838661"><ele>51.99999999999999</ele><time>2026-04-19T13:23:03.404Z</time></trkpt><trkpt lat="43.9372978" lon="10.2837448"><ele>52.0</ele><time>2026-04-19T13:23:05.379Z</time></trkpt><trkpt lat="43.9372774" lon="10.2835684"><ele>52.0</ele><time>2026-04-19T13:23:07.403Z</time></trkpt><trkpt lat="43.9372743" lon="10.2834763"><ele>52.0</ele><time>2026-04-19T13:23:08.394Z</time></trkpt><trkpt lat="43.9372733" lon="10.2833766"><ele>51.99999999999999</ele><time>2026-04-19T13:23:09.406Z</time></trkpt><trkpt lat="43.9372622" lon="10.2832639"><ele>52.0</ele><time>2026-04-19T13:23:10.377Z</time></trkpt><trkpt lat="43.9372452" lon="10.28315"><ele>54.33333333333333</ele><time>2026-04-19T13:23:11.407Z</time></trkpt><trkpt lat="43.9372264" lon="10.2830313"><ele>56.666666666666664</ele><time>2026-04-19T13:23:12.408Z</time></trkpt><trkpt lat="43.9372057" lon="10.2829143"><ele>59.0</ele><time>2026-04-19T13:23:13.378Z</time></trkpt><trkpt lat="43.9371747" lon="10.2827993"><ele>61.33333333333333</ele><time>2026-04-19T13:23:14.378Z</time></trkpt><trkpt lat="43.9371448" lon="10.2826845"><ele>63.666666666666664</ele><time>2026-04-19T13:23:15.385Z</time></trkpt><trkpt lat="43.9371117" lon="10.2825644"><ele>66.0</ele><time>2026-04-19T13:23:16.399Z</time></trkpt><trkpt lat="43.9370791" lon="10.28245"><ele>66.0</ele><time>2026-04-19T13:23:17.39Z</time></trkpt><trkpt lat="43.9370434" lon="10.2823354"><ele>66.0</ele><time>2026-04-19T13:23:18.397Z</time></trkpt><trkpt lat="43.9370055" lon="10.2822193"><ele>66.0</ele><time>2026-04-19T13:23:19.402Z</time></trkpt><trkpt lat="43.9369717" lon="10.2821017"><ele>66.0</ele><time>2026-04-19T13:23:20.379Z</time></trkpt><trkpt lat="43.9369373" lon="10.2819853"><ele>66.0</ele><time>2026-04-19T13:23:21.387Z</time></trkpt><trkpt lat="43.9368996" lon="10.2818682"><ele>68.0</ele><time>2026-04-19T13:23:22.386Z</time></trkpt><trkpt lat="43.9368613" lon="10.2817489"><ele>70.0</ele><time>2026-04-19T13:23:23.397Z</time></trkpt><trkpt lat="43.9368202" lon="10.2816294"><ele>72.0</ele><time>2026-04-19T13:23:24.384Z</time></trkpt><trkpt lat="43.9367786" lon="10.2815166"><ele>74.0</ele><time>2026-04-19T13:23:25.39Z</time></trkpt><trkpt lat="43.9367404" lon="10.2813937"><ele>76.0</ele><time>2026-04-19T13:23:26.396Z</time></trkpt><trkpt lat="43.9367017" lon="10.2812838"><ele>76.0</ele><time>2026-04-19T13:23:27.385Z</time></trkpt><trkpt lat="43.9366627" lon="10.281173"><ele>76.0</ele><time>2026-04-19T13:23:28.395Z</time></trkpt><trkpt lat="43.9366242" lon="10.2810575"><ele>76.0</ele><time>2026-04-19T13:23:29.39Z</time></trkpt><trkpt lat="43.9365986" lon="10.2809374"><ele>76.0</ele><time>2026-04-19T13:23:30.411Z</time></trkpt><trkpt lat="43.9365715" lon="10.2808173"><ele>76.0</ele><time>2026-04-19T13:23:31.417Z</time></trkpt><trkpt lat="43.936546" lon="10.2806949"><ele>79.0</ele><time>2026-04-19T13:23:32.401Z</time></trkpt><trkpt lat="43.9365236" lon="10.2805692"><ele>82.0</ele><time>2026-04-19T13:23:33.389Z</time></trkpt><trkpt lat="43.9365053" lon="10.2804467"><ele>85.0</ele><time>2026-04-19T13:23:34.399Z</time></trkpt><trkpt lat="43.9364884" lon="10.280338"><ele>88.0</ele><time>2026-04-19T13:23:35.409Z</time></trkpt><trkpt lat="43.9364493" lon="10.2801867"><ele>91.0</ele><time>2026-04-19T13:23:37.398Z</time></trkpt><trkpt lat="43.9363968" lon="10.28009"><ele>91.0</ele><time>2026-04-19T13:23:39.414Z</time></trkpt><trkpt lat="43.9362946" lon="10.2800363"><ele>91.0</ele><time>2026-04-19T13:23:41.413Z</time></trkpt><trkpt lat="43.9361708" lon="10.2800169"><ele>91.0</ele><time>2026-04-19T13:23:43.391Z</time></trkpt><trkpt lat="43.9360647" lon="10.2799774"><ele>91.0</ele><time>2026-04-19T13:23:45.408Z</time></trkpt><trkpt lat="43.9359716" lon="10.2798789"><ele>91.0</ele><time>2026-04-19T13:23:47.43Z</time></trkpt><trkpt lat="43.9359443" lon="10.2797883"><ele>91.0</ele><time>2026-04-19T13:23:48.441Z</time></trkpt><trkpt lat="43.9359293" lon="10.2796901"><ele>91.0</ele><time>2026-04-19T13:23:49.439Z</time></trkpt><trkpt lat="43.9358922" lon="10.2795891"><ele>91.0</ele><time>2026-04-19T13:23:50.466Z</time></trkpt><trkpt lat="43.9358556" lon="10.2794917"><ele>91.0</ele><time>2026-04-19T13:23:51.432Z</time></trkpt><trkpt lat="43.9358168" lon="10.2794163"><ele>91.0</ele><time>2026-04-19T13:23:52.429Z</time></trkpt><trkpt lat="43.9358096" lon="10.2792727"><ele>90.42857142857143</ele><time>2026-04-19T13:23:54.46Z</time></trkpt><trkpt lat="43.9358368" lon="10.2791866"><ele>89.85714285714286</ele><time>2026-04-19T13:23:55.38Z</time></trkpt><trkpt lat="43.935889" lon="10.2791154"><ele>89.28571428571428</ele><time>2026-04-19T13:23:56.411Z</time></trkpt><trkpt lat="43.9359461" lon="10.2790619"><ele>88.71428571428572</ele><time>2026-04-19T13:23:57.421Z</time></trkpt><trkpt lat="43.9360024" lon="10.2790115"><ele>88.14285714285714</ele><time>2026-04-19T13:23:59.453Z</time></trkpt><trkpt lat="43.9360737" lon="10.279002"><ele>87.57142857142857</ele><time>2026-04-19T13:24:13.382Z</time></trkpt><trkpt lat="43.9361426" lon="10.2789278"><ele>87.0</ele><time>2026-04-19T13:24:15.425Z</time></trkpt><trkpt lat="43.9362389" lon="10.278818"><ele>91.83333333333333</ele><time>2026-04-19T13:24:17.381Z</time></trkpt><trkpt lat="43.9362901" lon="10.2787615"><ele>96.66666666666666</ele><time>2026-04-19T13:24:18.387Z</time></trkpt><trkpt lat="43.9363722" lon="10.2786297"><ele>101.5</ele><time>2026-04-19T13:24:20.374Z</time></trkpt><trkpt lat="43.936424" lon="10.2785118"><ele>106.33333333333333</ele><time>2026-04-19T13:24:22.387Z</time></trkpt><trkpt lat="43.9364505" lon="10.2784209"><ele>111.16666666666666</ele><time>2026-04-19T13:24:24.386Z</time></trkpt><trkpt lat="43.9364505" lon="10.2783169"><ele>116.0</ele><time>2026-04-19T13:24:27.438Z</time></trkpt><trkpt lat="43.9364208" lon="10.278235"><ele>115.99999999999999</ele><time>2026-04-19T13:24:30.418Z</time></trkpt><trkpt lat="43.9363954" lon="10.2781389"><ele>116.0</ele><time>2026-04-19T13:24:32.413Z</time></trkpt><trkpt lat="43.9363856" lon="10.2782585"><ele>116.0</ele><time>2026-04-19T13:24:53.404Z</time></trkpt><trkpt lat="43.9364077" lon="10.2783874"><ele>116.0</ele><time>2026-04-19T13:24:55.411Z</time></trkpt><trkpt lat="43.9364015" lon="10.2785095"><ele>115.99999999999999</ele><time>2026-04-19T13:24:57.47Z</time></trkpt><trkpt lat="43.9363574" lon="10.2786199"><ele>116.0</ele><time>2026-04-19T13:24:59.395Z</time></trkpt><trkpt lat="43.9362998" lon="10.2787193"><ele>115.99999999999999</ele><time>2026-04-19T13:25:01.397Z</time></trkpt><trkpt lat="43.9362451" lon="10.2788003"><ele>116.0</ele><time>2026-04-19T13:25:03.4Z</time></trkpt><trkpt lat="43.9361601" lon="10.2789204"><ele>116.0</ele><time>2026-04-19T13:25:05.394Z</time></trkpt><trkpt lat="43.9361017" lon="10.2789822"><ele>116.0</ele><time>2026-04-19T13:25:06.389Z</time></trkpt><trkpt lat="43.9360446" lon="10.2790378"><ele>115.99999999999999</ele><time>2026-04-19T13:25:07.385Z</time></trkpt><trkpt lat="43.9359897" lon="10.2790863"><ele>116.0</ele><time>2026-04-19T13:25:08.396Z</time></trkpt><trkpt lat="43.9359339" lon="10.2791291"><ele>113.99999999999999</ele><time>2026-04-19T13:25:09.39Z</time></trkpt><trkpt lat="43.9358427" lon="10.2792052"><ele>112.0</ele><time>2026-04-19T13:25:11.394Z</time></trkpt><trkpt lat="43.9357963" lon="10.2793058"><ele>110.0</ele><time>2026-04-19T13:25:13.42Z</time></trkpt><trkpt lat="43.9357877" lon="10.2794212"><ele>108.0</ele><time>2026-04-19T13:25:15.444Z</time></trkpt><trkpt lat="43.9358216" lon="10.2794966"><ele>105.99999999999999</ele><time>2026-04-19T13:25:16.385Z</time></trkpt><trkpt lat="43.9358621" lon="10.279581"><ele>104.0</ele><time>2026-04-19T13:25:17.396Z</time></trkpt><trkpt lat="43.9359021" lon="10.2796736"><ele>101.83333333333333</ele><time>2026-04-19T13:25:18.403Z</time></trkpt><trkpt lat="43.9359344" lon="10.2797862"><ele>99.66666666666666</ele><time>2026-04-19T13:25:19.416Z</time></trkpt><trkpt lat="43.9359544" lon="10.2798833"><ele>97.5</ele><time>2026-04-19T13:25:20.396Z</time></trkpt><trkpt lat="43.935996" lon="10.2800022"><ele>95.33333333333333</ele><time>2026-04-19T13:25:22.401Z</time></trkpt><trkpt lat="43.9360867" lon="10.2800476"><ele>93.16666666666666</ele><time>2026-04-19T13:25:24.399Z</time></trkpt><trkpt lat="43.9361744" lon="10.2800657"><ele>91.0</ele><time>2026-04-19T13:25:26.391Z</time></trkpt><trkpt lat="43.9362544" lon="10.2800791"><ele>91.0</ele><time>2026-04-19T13:25:28.388Z</time></trkpt><trkpt lat="43.9363243" lon="10.2800858"><ele>91.0</ele><time>2026-04-19T13:25:30.416Z</time></trkpt><trkpt lat="43.9363913" lon="10.2801167"><ele>91.0</ele><time>2026-04-19T13:25:32.463Z</time></trkpt><trkpt lat="43.9364604" lon="10.2802391"><ele>91.0</ele><time>2026-04-19T13:25:34.388Z</time></trkpt><trkpt lat="43.9364846" lon="10.2803392"><ele>91.0</ele><time>2026-04-19T13:25:35.442Z</time></trkpt><trkpt lat="43.9365038" lon="10.2804578"><ele>91.0</ele><time>2026-04-19T13:25:36.403Z</time></trkpt><trkpt lat="43.9365238" lon="10.2805582"><ele>88.0</ele><time>2026-04-19T13:25:37.403Z</time></trkpt><trkpt lat="43.9365395" lon="10.2806461"><ele>85.0</ele><time>2026-04-19T13:25:38.436Z</time></trkpt><trkpt lat="43.9365708" lon="10.2808052"><ele>82.0</ele><time>2026-04-19T13:25:40.385Z</time></trkpt><trkpt lat="43.936602" lon="10.2809575"><ele>79.0</ele><time>2026-04-19T13:25:42.411Z</time></trkpt><trkpt lat="43.9366199" lon="10.281059"><ele>76.0</ele><time>2026-04-19T13:25:43.386Z</time></trkpt><trkpt lat="43.9366543" lon="10.2811678"><ele>76.0</ele><time>2026-04-19T13:25:44.389Z</time></trkpt><trkpt lat="43.9366912" lon="10.281276"><ele>76.0</ele><time>2026-04-19T13:25:45.422Z</time></trkpt><trkpt lat="43.9367305" lon="10.281392"><ele>76.0</ele><time>2026-04-19T13:25:46.405Z</time></trkpt><trkpt lat="43.9367691" lon="10.2815036"><ele>76.0</ele><time>2026-04-19T13:25:47.384Z</time></trkpt><trkpt lat="43.9368066" lon="10.2816144"><ele>76.0</ele><time>2026-04-19T13:25:48.419Z</time></trkpt><trkpt lat="43.9368447" lon="10.281736"><ele>77.5</ele><time>2026-04-19T13:25:49.381Z</time></trkpt><trkpt lat="43.9368835" lon="10.2818563"><ele>79.0</ele><time>2026-04-19T13:25:50.374Z</time></trkpt><trkpt lat="43.9369198" lon="10.2819732"><ele>80.5</ele><time>2026-04-19T13:25:51.394Z</time></trkpt><trkpt lat="43.9369552" lon="10.2820871"><ele>82.0</ele><time>2026-04-19T13:25:52.397Z</time></trkpt><trkpt lat="43.9369877" lon="10.2821856"><ele>83.5</ele><time>2026-04-19T13:25:53.401Z</time></trkpt><trkpt lat="43.9370177" lon="10.2822797"><ele>85.0</ele><time>2026-04-19T13:25:54.38Z</time></trkpt><trkpt lat="43.9370501" lon="10.2823796"><ele>81.83333333333333</ele><time>2026-04-19T13:25:55.431Z</time></trkpt><trkpt lat="43.9370837" lon="10.2824811"><ele>78.66666666666666</ele><time>2026-04-19T13:25:56.408Z</time></trkpt><trkpt lat="43.9371177" lon="10.2825931"><ele>75.5</ele><time>2026-04-19T13:25:57.46Z</time></trkpt><trkpt lat="43.9371424" lon="10.282718"><ele>72.33333333333333</ele><time>2026-04-19T13:25:58.403Z</time></trkpt><trkpt lat="43.9371728" lon="10.2828327"><ele>69.16666666666667</ele><time>2026-04-19T13:25:59.402Z</time></trkpt><trkpt lat="43.9371979" lon="10.2829457"><ele>66.0</ele><time>2026-04-19T13:26:00.407Z</time></trkpt><trkpt lat="43.9372187" lon="10.2830568"><ele>63.666666666666664</ele><time>2026-04-19T13:26:01.392Z</time></trkpt><trkpt lat="43.9372378" lon="10.2831578"><ele>61.33333333333333</ele><time>2026-04-19T13:26:02.391Z</time></trkpt><trkpt lat="43.9372485" lon="10.2832622"><ele>59.0</ele><time>2026-04-19T13:26:03.394Z</time></trkpt><trkpt lat="43.9372518" lon="10.283365"><ele>56.666666666666664</ele><time>2026-04-19T13:26:04.381Z</time></trkpt><trkpt lat="43.9372593" lon="10.283464"><ele>54.33333333333333</ele><time>2026-04-19T13:26:05.4Z</time></trkpt><trkpt lat="43.9372649" lon="10.2835581"><ele>52.0</ele><time>2026-04-19T13:26:06.4Z</time></trkpt><trkpt lat="43.9372737" lon="10.2837102"><ele>51.99999999999999</ele><time>2026-04-19T13:26:08.404Z</time></trkpt><trkpt lat="43.9372818" lon="10.2838165"><ele>52.0</ele><time>2026-04-19T13:26:10.394Z</time></trkpt><trkpt lat="43.937212" lon="10.2838616"><ele>52.0</ele><time>2026-04-19T13:26:13.399Z</time></trkpt><trkpt lat="43.9371428" lon="10.283788"><ele>52.0</ele><time>2026-04-19T13:26:15.388Z</time></trkpt><trkpt lat="43.937083" lon="10.2836315"><ele>51.99999999999999</ele><time>2026-04-19T13:26:17.403Z</time></trkpt><trkpt lat="43.9370498" lon="10.2835401"><ele>52.0</ele><time>2026-04-19T13:26:18.387Z</time></trkpt><trkpt lat="43.9370132" lon="10.2834453"><ele>52.0</ele><time>2026-04-19T13:26:19.393Z</time></trkpt><trkpt lat="43.9369754" lon="10.2833586"><ele>52.0</ele><time>2026-04-19T13:26:20.406Z</time></trkpt><trkpt lat="43.9369355" lon="10.2832826"><ele>52.0</ele><time>2026-04-19T13:26:21.408Z</time></trkpt><trkpt lat="43.9368892" lon="10.2832124"><ele>52.0</ele><time>2026-04-19T13:26:22.415Z</time></trkpt><trkpt lat="43.9368383" lon="10.2831487"><ele>52.0</ele><time>2026-04-19T13:26:23.4Z</time></trkpt><trkpt lat="43.9367856" lon="10.2830889"><ele>52.0</ele><time>2026-04-19T13:26:24.376Z</time></trkpt><trkpt lat="43.9367364" lon="10.2830323"><ele>52.0</ele><time>2026-04-19T13:26:25.441Z</time></trkpt><trkpt lat="43.9366695" lon="10.2829448"><ele>50.666666666666664</ele><time>2026-04-19T13:26:27.412Z</time></trkpt><trkpt lat="43.9365994" lon="10.2829242"><ele>49.33333333333333</ele><time>2026-04-19T13:26:30.402Z</time></trkpt><trkpt lat="43.9365651" lon="10.2830313"><ele>48.0</ele><time>2026-04-19T13:26:33.397Z</time></trkpt><trkpt lat="43.9366037" lon="10.2831452"><ele>46.666666666666664</ele><time>2026-04-19T13:26:35.387Z</time></trkpt><trkpt lat="43.936653" lon="10.2832807"><ele>45.33333333333333</ele><time>2026-04-19T13:26:37.387Z</time></trkpt><trkpt lat="43.9366807" lon="10.2833689"><ele>44.0</ele><time>2026-04-19T13:26:38.39Z</time></trkpt><trkpt lat="43.936694" lon="10.2834716"><ele>42.166666666666664</ele><time>2026-04-19T13:26:39.395Z</time></trkpt><trkpt lat="43.9366966" lon="10.2835967"><ele>40.33333333333333</ele><time>2026-04-19T13:26:40.381Z</time></trkpt><trkpt lat="43.9367004" lon="10.2837232"><ele>38.5</ele><time>2026-04-19T13:26:41.373Z</time></trkpt><trkpt lat="43.9366991" lon="10.2838511"><ele>36.666666666666664</ele><time>2026-04-19T13:26:42.395Z</time></trkpt><trkpt lat="43.9366904" lon="10.2839628"><ele>34.833333333333336</ele><time>2026-04-19T13:26:43.404Z</time></trkpt><trkpt lat="43.9366832" lon="10.2840575"><ele>33.0</ele><time>2026-04-19T13:26:44.395Z</time></trkpt><trkpt lat="43.9366683" lon="10.2842257"><ele>32.0</ele><time>2026-04-19T13:26:46.399Z</time></trkpt><trkpt lat="43.9366525" lon="10.2843129"><ele>31.0</ele><time>2026-04-19T13:26:47.389Z</time></trkpt><trkpt lat="43.9366198" lon="10.2843984"><ele>30.0</ele><time>2026-04-19T13:26:48.384Z</time></trkpt><trkpt lat="43.9365749" lon="10.2844932"><ele>29.0</ele><time>2026-04-19T13:26:49.371Z</time></trkpt><trkpt lat="43.9365259" lon="10.2845842"><ele>28.0</ele><time>2026-04-19T13:26:50.394Z</time></trkpt><trkpt lat="43.9364726" lon="10.2846709"><ele>27.0</ele><time>2026-04-19T13:26:51.391Z</time></trkpt><trkpt lat="43.9364184" lon="10.284764"><ele>26.666666666666668</ele><time>2026-04-19T13:26:52.387Z</time></trkpt><trkpt lat="43.9363747" lon="10.2848416"><ele>26.333333333333336</ele><time>2026-04-19T13:26:53.39Z</time></trkpt><trkpt lat="43.9362986" lon="10.2849381"><ele>26.0</ele><time>2026-04-19T13:26:55.392Z</time></trkpt><trkpt lat="43.9362247" lon="10.2849768"><ele>25.666666666666668</ele><time>2026-04-19T13:26:57.486Z</time></trkpt><trkpt lat="43.9361465" lon="10.2849962"><ele>25.333333333333336</ele><time>2026-04-19T13:27:00.41Z</time></trkpt><trkpt lat="43.9360888" lon="10.2850418"><ele>25.0</ele><time>2026-04-19T13:27:14.467Z</time></trkpt><trkpt lat="43.9360157" lon="10.284996"><ele>25.0</ele><time>2026-04-19T13:27:16.392Z</time></trkpt><trkpt lat="43.9359632" lon="10.2849363"><ele>25.0</ele><time>2026-04-19T13:27:17.405Z</time></trkpt><trkpt lat="43.9359062" lon="10.2848507"><ele>25.0</ele><time>2026-04-19T13:27:18.376Z</time></trkpt><trkpt lat="43.9358472" lon="10.2847435"><ele>25.0</ele><time>2026-04-19T13:27:19.411Z</time></trkpt><trkpt lat="43.9358008" lon="10.2846123"><ele>25.0</ele><time>2026-04-19T13:27:20.451Z</time></trkpt><trkpt lat="43.9357554" lon="10.2844797"><ele>24.5</ele><time>2026-04-19T13:27:21.41Z</time></trkpt><trkpt lat="43.9357215" lon="10.2843484"><ele>24.0</ele><time>2026-04-19T13:27:22.401Z</time></trkpt><trkpt lat="43.9356819" lon="10.2842004"><ele>23.5</ele><time>2026-04-19T13:27:23.383Z</time></trkpt><trkpt lat="43.9356379" lon="10.2840521"><ele>23.0</ele><time>2026-04-19T13:27:24.371Z</time></trkpt><trkpt lat="43.9355801" lon="10.2838985"><ele>23.0</ele><time>2026-04-19T13:27:25.423Z</time></trkpt><trkpt lat="43.9355169" lon="10.2837626"><ele>23.0</ele><time>2026-04-19T13:27:26.422Z</time></trkpt><trkpt lat="43.9354525" lon="10.2836258"><ele>23.0</ele><time>2026-04-19T13:27:27.388Z</time></trkpt><trkpt lat="43.9353909" lon="10.2834902"><ele>23.0</ele><time>2026-04-19T13:27:28.405Z</time></trkpt><trkpt lat="43.9353303" lon="10.2833477"><ele>23.0</ele><time>2026-04-19T13:27:29.372Z</time></trkpt><trkpt lat="43.9352714" lon="10.2831937"><ele>23.0</ele><time>2026-04-19T13:27:30.393Z</time></trkpt><trkpt lat="43.9352091" lon="10.2830266"><ele>23.0</ele><time>2026-04-19T13:27:31.38Z</time></trkpt><trkpt lat="43.9351548" lon="10.2828555"><ele>23.0</ele><time>2026-04-19T13:27:32.372Z</time></trkpt><trkpt lat="43.9350969" lon="10.2826882"><ele>22.5</ele><time>2026-04-19T13:27:33.395Z</time></trkpt><trkpt lat="43.9350359" lon="10.282534"><ele>22.0</ele><time>2026-04-19T13:27:34.394Z</time></trkpt><trkpt lat="43.9349708" lon="10.2823891"><ele>21.5</ele><time>2026-04-19T13:27:35.396Z</time></trkpt><trkpt lat="43.9348932" lon="10.2822387"><ele>21.0</ele><time>2026-04-19T13:27:36.381Z</time></trkpt><trkpt lat="43.9348066" lon="10.2820811"><ele>20.75</ele><time>2026-04-19T13:27:37.388Z</time></trkpt><trkpt lat="43.9347156" lon="10.281932"><ele>20.5</ele><time>2026-04-19T13:27:38.398Z</time></trkpt><trkpt lat="43.9346139" lon="10.2817987"><ele>20.25</ele><time>2026-04-19T13:27:39.381Z</time></trkpt><trkpt lat="43.9345119" lon="10.2816663"><ele>20.0</ele><time>2026-04-19T13:27:40.426Z</time></trkpt><trkpt lat="43.9344124" lon="10.2815502"><ele>20.0</ele><time>2026-04-19T13:27:41.389Z</time></trkpt><trkpt lat="43.9343166" lon="10.2814414"><ele>20.0</ele><time>2026-04-19T13:27:42.39Z</time></trkpt><trkpt lat="43.934223" lon="10.2813237"><ele>20.0</ele><time>2026-04-19T13:27:43.391Z</time></trkpt><trkpt lat="43.9341256" lon="10.2812012"><ele>20.0</ele><time>2026-04-19T13:27:44.374Z</time></trkpt><trkpt lat="43.9340213" lon="10.2810821"><ele>20.0</ele><time>2026-04-19T13:27:45.459Z</time></trkpt><trkpt lat="43.9339075" lon="10.280959"><ele>20.0</ele><time>2026-04-19T13:27:46.407Z</time></trkpt><trkpt lat="43.9337911" lon="10.2808311"><ele>20.0</ele><time>2026-04-19T13:27:47.385Z</time></trkpt><trkpt lat="43.9336781" lon="10.2807016"><ele>20.0</ele><time>2026-04-19T13:27:48.406Z</time></trkpt><trkpt lat="43.9335793" lon="10.2805849"><ele>19.5</ele><time>2026-04-19T13:27:49.394Z</time></trkpt><trkpt lat="43.9334745" lon="10.2804755"><ele>19.0</ele><time>2026-04-19T13:27:50.428Z</time></trkpt><trkpt lat="43.9333604" lon="10.2803567"><ele>18.5</ele><time>2026-04-19T13:27:51.406Z</time></trkpt><trkpt lat="43.9332446" lon="10.2802281"><ele>18.0</ele><time>2026-04-19T13:27:52.374Z</time></trkpt><trkpt lat="43.9331381" lon="10.2800969"><ele>18.0</ele><time>2026-04-19T13:27:53.386Z</time></trkpt><trkpt lat="43.933025" lon="10.2799657"><ele>18.0</ele><time>2026-04-19T13:27:54.462Z</time></trkpt><trkpt lat="43.9329291" lon="10.2798496"><ele>18.0</ele><time>2026-04-19T13:27:55.392Z</time></trkpt><trkpt lat="43.9328302" lon="10.279737"><ele>18.0</ele><time>2026-04-19T13:27:56.43Z</time></trkpt><trkpt lat="43.9327292" lon="10.2796077"><ele>17.75</ele><time>2026-04-19T13:27:57.389Z</time></trkpt><trkpt lat="43.9326244" lon="10.2794704"><ele>17.5</ele><time>2026-04-19T13:27:58.395Z</time></trkpt><trkpt lat="43.9325291" lon="10.2793286"><ele>17.25</ele><time>2026-04-19T13:27:59.375Z</time></trkpt><trkpt lat="43.9324492" lon="10.2792003"><ele>17.0</ele><time>2026-04-19T13:28:00.389Z</time></trkpt><trkpt lat="43.9323621" lon="10.2790688"><ele>17.0</ele><time>2026-04-19T13:28:01.37Z</time></trkpt><trkpt lat="43.9322748" lon="10.2789308"><ele>17.0</ele><time>2026-04-19T13:28:02.382Z</time></trkpt><trkpt lat="43.9321938" lon="10.2787936"><ele>17.0</ele><time>2026-04-19T13:28:03.406Z</time></trkpt><trkpt lat="43.9321126" lon="10.2786576"><ele>17.0</ele><time>2026-04-19T13:28:04.434Z</time></trkpt><trkpt lat="43.9320283" lon="10.2785165"><ele>17.0</ele><time>2026-04-19T13:28:05.427Z</time></trkpt><trkpt lat="43.9319426" lon="10.2783691"><ele>17.0</ele><time>2026-04-19T13:28:06.468Z</time></trkpt><trkpt lat="43.9318579" lon="10.2782156"><ele>17.0</ele><time>2026-04-19T13:28:07.398Z</time></trkpt><trkpt lat="43.9317745" lon="10.2780607"><ele>17.0</ele><time>2026-04-19T13:28:08.393Z</time></trkpt><trkpt lat="43.9316931" lon="10.2779023"><ele>16.333333333333336</ele><time>2026-04-19T13:28:09.378Z</time></trkpt><trkpt lat="43.9316177" lon="10.2777462"><ele>15.666666666666668</ele><time>2026-04-19T13:28:10.39Z</time></trkpt><trkpt lat="43.931543" lon="10.2775924"><ele>15.0</ele><time>2026-04-19T13:28:11.641Z</time></trkpt><trkpt lat="43.9314066" lon="10.2773045"><ele>15.0</ele><time>2026-04-19T13:28:13.407Z</time></trkpt><trkpt lat="43.9313332" lon="10.2771478"><ele>15.0</ele><time>2026-04-19T13:28:14.407Z</time></trkpt><trkpt lat="43.9312662" lon="10.2769899"><ele>15.0</ele><time>2026-04-19T13:28:15.402Z</time></trkpt><trkpt lat="43.9312008" lon="10.2768261"><ele>15.0</ele><time>2026-04-19T13:28:16.408Z</time></trkpt><trkpt lat="43.9311423" lon="10.2766763"><ele>15.0</ele><time>2026-04-19T13:28:17.381Z</time></trkpt><trkpt lat="43.9310871" lon="10.2765311"><ele>15.0</ele><time>2026-04-19T13:28:18.417Z</time></trkpt><trkpt lat="43.9310329" lon="10.276385"><ele>15.0</ele><time>2026-04-19T13:28:19.453Z</time></trkpt><trkpt lat="43.9309845" lon="10.2762375"><ele>15.0</ele><time>2026-04-19T13:28:20.396Z</time></trkpt><trkpt lat="43.9309331" lon="10.2760863"><ele>15.0</ele><time>2026-04-19T13:28:21.423Z</time></trkpt><trkpt lat="43.9308774" lon="10.2759402"><ele>15.0</ele><time>2026-04-19T13:28:22.393Z</time></trkpt><trkpt lat="43.9308261" lon="10.2758084"><ele>15.0</ele><time>2026-04-19T13:28:23.378Z</time></trkpt><trkpt lat="43.9307775" lon="10.2756841"><ele>15.0</ele><time>2026-04-19T13:28:24.432Z</time></trkpt><trkpt lat="43.9307327" lon="10.2755662"><ele>15.0</ele><time>2026-04-19T13:28:25.407Z</time></trkpt><trkpt lat="43.9306844" lon="10.2754547"><ele>15.0</ele><time>2026-04-19T13:28:26.396Z</time></trkpt><trkpt lat="43.9306363" lon="10.2753463"><ele>15.0</ele><time>2026-04-19T13:28:27.392Z</time></trkpt><trkpt lat="43.9305874" lon="10.2752431"><ele>15.0</ele><time>2026-04-19T13:28:28.439Z</time></trkpt><trkpt lat="43.9305452" lon="10.2751456"><ele>15.0</ele><time>2026-04-19T13:28:29.418Z</time></trkpt><trkpt lat="43.9305071" lon="10.2750582"><ele>15.0</ele><time>2026-04-19T13:28:30.387Z</time></trkpt><trkpt lat="43.930446" lon="10.2749135"><ele>15.0</ele><time>2026-04-19T13:28:32.404Z</time></trkpt><trkpt lat="43.9304025" lon="10.2748132"><ele>15.0</ele><time>2026-04-19T13:28:34.404Z</time></trkpt><trkpt lat="43.9303805" lon="10.2747254"><ele>15.0</ele><time>2026-04-19T13:28:36.413Z</time></trkpt><trkpt lat="43.9304295" lon="10.2746521"><ele>15.0</ele><time>2026-04-19T13:28:38.436Z</time></trkpt><trkpt lat="43.930515" lon="10.2746514"><ele>15.0</ele><time>2026-04-19T13:28:40.398Z</time></trkpt><trkpt lat="43.9306015" lon="10.2747303"><ele>15.0</ele><time>2026-04-19T13:28:42.457Z</time></trkpt><trkpt lat="43.9306638" lon="10.2748641"><ele>15.0</ele><time>2026-04-19T13:28:44.396Z</time></trkpt><trkpt lat="43.9307147" lon="10.2749567"><ele>15.0</ele><time>2026-04-19T13:28:46.428Z</time></trkpt><trkpt lat="43.9307843" lon="10.2749535"><ele>15.0</ele><time>2026-04-19T13:28:48.387Z</time></trkpt><trkpt lat="43.9308726" lon="10.2748916"><ele>15.0</ele><time>2026-04-19T13:28:50.397Z</time></trkpt><trkpt lat="43.9309307" lon="10.2748519"><ele>15.0</ele><time>2026-04-19T13:28:51.385Z</time></trkpt><trkpt lat="43.9309938" lon="10.2748148"><ele>15.0</ele><time>2026-04-19T13:28:52.409Z</time></trkpt><trkpt lat="43.9310589" lon="10.2747762"><ele>15.571428571428573</ele><time>2026-04-19T13:28:53.417Z</time></trkpt><trkpt lat="43.9311272" lon="10.274737"><ele>16.142857142857142</ele><time>2026-04-19T13:28:54.381Z</time></trkpt><trkpt lat="43.9311975" lon="10.2746938"><ele>16.714285714285715</ele><time>2026-04-19T13:28:55.38Z</time></trkpt><trkpt lat="43.9312666" lon="10.2746553"><ele>17.285714285714285</ele><time>2026-04-19T13:28:56.402Z</time></trkpt><trkpt lat="43.9313282" lon="10.274617"><ele>17.857142857142858</ele><time>2026-04-19T13:28:57.387Z</time></trkpt><trkpt lat="43.9313904" lon="10.2745791"><ele>18.428571428571427</ele><time>2026-04-19T13:28:58.38Z</time></trkpt><trkpt lat="43.9314515" lon="10.2745386"><ele>19.0</ele><time>2026-04-19T13:28:59.456Z</time></trkpt><trkpt lat="43.9315113" lon="10.2745015"><ele>19.0</ele><time>2026-04-19T13:29:00.476Z</time></trkpt><trkpt lat="43.9316247" lon="10.2744348"><ele>19.0</ele><time>2026-04-19T13:29:02.419Z</time></trkpt><trkpt lat="43.9317116" lon="10.2743996"><ele>19.0</ele><time>2026-04-19T13:29:04.437Z</time></trkpt><trkpt lat="43.9317849" lon="10.274364"><ele>19.0</ele><time>2026-04-19T13:29:06.413Z</time></trkpt><trkpt lat="43.9318429" lon="10.2743128"><ele>19.0</ele><time>2026-04-19T13:29:18.751Z</time></trkpt><trkpt lat="43.9318268" lon="10.2741829"><ele>19.71428571428571</ele><time>2026-04-19T13:29:20.548Z</time></trkpt><trkpt lat="43.9317975" lon="10.2740989"><ele>20.42857142857143</ele><time>2026-04-19T13:29:21.532Z</time></trkpt><trkpt lat="43.9317672" lon="10.2740123"><ele>21.142857142857142</ele><time>2026-04-19T13:29:22.437Z</time></trkpt><trkpt lat="43.9317414" lon="10.2739244"><ele>21.857142857142854</ele><time>2026-04-19T13:29:23.431Z</time></trkpt><trkpt lat="43.931711" lon="10.273837"><ele>22.57142857142857</ele><time>2026-04-19T13:29:24.422Z</time></trkpt><trkpt lat="43.9316776" lon="10.2737513"><ele>23.285714285714285</ele><time>2026-04-19T13:29:25.417Z</time></trkpt><trkpt lat="43.9316445" lon="10.2736607"><ele>24.0</ele><time>2026-04-19T13:29:26.464Z</time></trkpt><trkpt lat="43.9316202" lon="10.2735555"><ele>24.0</ele><time>2026-04-19T13:29:27.435Z</time></trkpt><trkpt lat="43.9316065" lon="10.273447"><ele>24.0</ele><time>2026-04-19T13:29:28.391Z</time></trkpt><trkpt lat="43.9315898" lon="10.2733365"><ele>24.0</ele><time>2026-04-19T13:29:29.461Z</time></trkpt><trkpt lat="43.9315741" lon="10.273215"><ele>24.0</ele><time>2026-04-19T13:29:30.452Z</time></trkpt><trkpt lat="43.9315605" lon="10.2730963"><ele>24.0</ele><time>2026-04-19T13:29:31.404Z</time></trkpt><trkpt lat="43.9315476" lon="10.2729804"><ele>24.0</ele><time>2026-04-19T13:29:32.403Z</time></trkpt><trkpt lat="43.9315301" lon="10.2728747"><ele>24.166666666666668</ele><time>2026-04-19T13:29:33.411Z</time></trkpt><trkpt lat="43.9315135" lon="10.272769"><ele>24.333333333333336</ele><time>2026-04-19T13:29:34.411Z</time></trkpt><trkpt lat="43.9314981" lon="10.2726662"><ele>24.5</ele><time>2026-04-19T13:29:35.391Z</time></trkpt><trkpt lat="43.9314895" lon="10.2725638"><ele>24.666666666666668</ele><time>2026-04-19T13:29:36.401Z</time></trkpt><trkpt lat="43.9314903" lon="10.272457"><ele>24.833333333333336</ele><time>2026-04-19T13:29:37.49Z</time></trkpt><trkpt lat="43.9314892" lon="10.2723509"><ele>25.0</ele><time>2026-04-19T13:29:38.446Z</time></trkpt><trkpt lat="43.931479" lon="10.2722334"><ele>25.000000000000004</ele><time>2026-04-19T13:29:39.401Z</time></trkpt><trkpt lat="43.9314702" lon="10.2721182"><ele>25.0</ele><time>2026-04-19T13:29:40.479Z</time></trkpt><trkpt lat="43.9314599" lon="10.2719919"><ele>25.0</ele><time>2026-04-19T13:29:41.46Z</time></trkpt><trkpt lat="43.931445" lon="10.271874"><ele>25.0</ele><time>2026-04-19T13:29:42.468Z</time></trkpt><trkpt lat="43.9314215" lon="10.2717539"><ele>25.000000000000004</ele><time>2026-04-19T13:29:43.425Z</time></trkpt><trkpt lat="43.9313958" lon="10.2716368"><ele>25.0</ele><time>2026-04-19T13:29:44.414Z</time></trkpt><trkpt lat="43.9313655" lon="10.2715146"><ele>25.833333333333336</ele><time>2026-04-19T13:29:45.453Z</time></trkpt><trkpt lat="43.9313336" lon="10.2714026"><ele>26.666666666666668</ele><time>2026-04-19T13:29:46.405Z</time></trkpt><trkpt lat="43.9313025" lon="10.2712915"><ele>27.5</ele><time>2026-04-19T13:29:47.383Z</time></trkpt><trkpt lat="43.9312741" lon="10.2711698"><ele>28.333333333333336</ele><time>2026-04-19T13:29:48.422Z</time></trkpt><trkpt lat="43.9312427" lon="10.2710548"><ele>29.166666666666668</ele><time>2026-04-19T13:29:49.391Z</time></trkpt><trkpt lat="43.9312144" lon="10.2709622"><ele>30.0</ele><time>2026-04-19T13:29:50.407Z</time></trkpt><trkpt lat="43.9311358" lon="10.2708555"><ele>30.0</ele><time>2026-04-19T13:29:52.45Z</time></trkpt><trkpt lat="43.9310799" lon="10.2708128"><ele>30.0</ele><time>2026-04-19T13:29:53.485Z</time></trkpt><trkpt lat="43.9310095" lon="10.2707974"><ele>30.0</ele><time>2026-04-19T13:29:54.409Z</time></trkpt><trkpt lat="43.930941" lon="10.2707865"><ele>30.0</ele><time>2026-04-19T13:29:55.411Z</time></trkpt><trkpt lat="43.9308735" lon="10.2707839"><ele>30.0</ele><time>2026-04-19T13:29:56.411Z</time></trkpt><trkpt lat="43.930796" lon="10.2707902"><ele>30.0</ele><time>2026-04-19T13:29:57.442Z</time></trkpt><trkpt lat="43.9307133" lon="10.2708369"><ele>30.0</ele><time>2026-04-19T13:29:58.441Z</time></trkpt><trkpt lat="43.9306263" lon="10.2708739"><ele>27.333333333333332</ele><time>2026-04-19T13:29:59.393Z</time></trkpt><trkpt lat="43.9305378" lon="10.2709044"><ele>24.666666666666668</ele><time>2026-04-19T13:30:00.438Z</time></trkpt><trkpt lat="43.9304569" lon="10.2709337"><ele>22.0</ele><time>2026-04-19T13:30:01.404Z</time></trkpt><trkpt lat="43.9303881" lon="10.2709593"><ele>19.333333333333336</ele><time>2026-04-19T13:30:02.415Z</time></trkpt><trkpt lat="43.9302817" lon="10.2709896"><ele>16.666666666666668</ele><time>2026-04-19T13:30:04.394Z</time></trkpt><trkpt lat="43.9302054" lon="10.2710108"><ele>14.0</ele><time>2026-04-19T13:30:06.389Z</time></trkpt><trkpt lat="43.9301279" lon="10.2710276"><ele>14.000000000000002</ele><time>2026-04-19T13:30:09.424Z</time></trkpt><trkpt lat="43.9300911" lon="10.2709516"><ele>14.0</ele><time>2026-04-19T13:30:11.396Z</time></trkpt><trkpt lat="43.9300869" lon="10.2708185"><ele>14.0</ele><time>2026-04-19T13:30:13.408Z</time></trkpt><trkpt lat="43.9301033" lon="10.2707296"><ele>14.0</ele><time>2026-04-19T13:30:14.405Z</time></trkpt><trkpt lat="43.9301209" lon="10.2706354"><ele>14.000000000000002</ele><time>2026-04-19T13:30:15.39Z</time></trkpt><trkpt lat="43.9301407" lon="10.2705313"><ele>14.0</ele><time>2026-04-19T13:30:16.406Z</time></trkpt><trkpt lat="43.9301663" lon="10.2704231"><ele>14.6</ele><time>2026-04-19T13:30:17.383Z</time></trkpt><trkpt lat="43.9301929" lon="10.2703098"><ele>15.2</ele><time>2026-04-19T13:30:18.406Z</time></trkpt><trkpt lat="43.9302351" lon="10.2701985"><ele>15.799999999999999</ele><time>2026-04-19T13:30:19.386Z</time></trkpt><trkpt lat="43.9302773" lon="10.2700882"><ele>16.4</ele><time>2026-04-19T13:30:20.394Z</time></trkpt><trkpt lat="43.9303279" lon="10.2699778"><ele>17.0</ele><time>2026-04-19T13:30:21.381Z</time></trkpt><trkpt lat="43.9303767" lon="10.2698701"><ele>16.2</ele><time>2026-04-19T13:30:22.404Z</time></trkpt><trkpt lat="43.9304285" lon="10.2697679"><ele>15.399999999999999</ele><time>2026-04-19T13:30:23.39Z</time></trkpt><trkpt lat="43.9304824" lon="10.2696589"><ele>14.600000000000001</ele><time>2026-04-19T13:30:24.402Z</time></trkpt><trkpt lat="43.9305382" lon="10.2695502"><ele>13.8</ele><time>2026-04-19T13:30:25.401Z</time></trkpt><trkpt lat="43.9306092" lon="10.2694611"><ele>13.0</ele><time>2026-04-19T13:30:26.38Z</time></trkpt><trkpt lat="43.9306885" lon="10.2693858"><ele>13.0</ele><time>2026-04-19T13:30:27.413Z</time></trkpt><trkpt lat="43.9307726" lon="10.2693194"><ele>13.0</ele><time>2026-04-19T13:30:28.383Z</time></trkpt><trkpt lat="43.9308581" lon="10.2692507"><ele>13.0</ele><time>2026-04-19T13:30:29.472Z</time></trkpt><trkpt lat="43.9309388" lon="10.2691824"><ele>13.0</ele><time>2026-04-19T13:30:30.434Z</time></trkpt><trkpt lat="43.9310035" lon="10.2690958"><ele>13.0</ele><time>2026-04-19T13:30:31.41Z</time></trkpt><trkpt lat="43.931068" lon="10.2690219"><ele>14.0</ele><time>2026-04-19T13:30:32.41Z</time></trkpt><trkpt lat="43.9311115" lon="10.2689378"><ele>15.0</ele><time>2026-04-19T13:30:33.437Z</time></trkpt><trkpt lat="43.931147" lon="10.2688554"><ele>16.0</ele><time>2026-04-19T13:30:34.459Z</time></trkpt><trkpt lat="43.9311797" lon="10.2687712"><ele>17.0</ele><time>2026-04-19T13:30:35.429Z</time></trkpt><trkpt lat="43.9312133" lon="10.2686829"><ele>18.0</ele><time>2026-04-19T13:30:36.454Z</time></trkpt><trkpt lat="43.9312474" lon="10.2685985"><ele>19.0</ele><time>2026-04-19T13:30:37.406Z</time></trkpt><trkpt lat="43.9312896" lon="10.2685202"><ele>20.0</ele><time>2026-04-19T13:30:38.442Z</time></trkpt><trkpt lat="43.9313426" lon="10.2684585"><ele>20.0</ele><time>2026-04-19T13:30:39.382Z</time></trkpt><trkpt lat="43.9314102" lon="10.2684021"><ele>20.0</ele><time>2026-04-19T13:30:40.397Z</time></trkpt><trkpt lat="43.931485" lon="10.2683443"><ele>20.0</ele><time>2026-04-19T13:30:41.402Z</time></trkpt><trkpt lat="43.9315581" lon="10.2682778"><ele>20.0</ele><time>2026-04-19T13:30:42.445Z</time></trkpt><trkpt lat="43.9316339" lon="10.2681881"><ele>20.0</ele><time>2026-04-19T13:30:43.413Z</time></trkpt><trkpt lat="43.931685" lon="10.2680775"><ele>20.0</ele><time>2026-04-19T13:30:44.425Z</time></trkpt><trkpt lat="43.9317378" lon="10.26797"><ele>22.333333333333336</ele><time>2026-04-19T13:30:45.454Z</time></trkpt><trkpt lat="43.9317926" lon="10.2678623"><ele>24.666666666666668</ele><time>2026-04-19T13:30:46.488Z</time></trkpt><trkpt lat="43.9318484" lon="10.2677535"><ele>27.0</ele><time>2026-04-19T13:30:47.427Z</time></trkpt><trkpt lat="43.9318931" lon="10.2676627"><ele>29.333333333333336</ele><time>2026-04-19T13:30:48.415Z</time></trkpt><trkpt lat="43.9319312" lon="10.2675906"><ele>31.666666666666668</ele><time>2026-04-19T13:30:49.414Z</time></trkpt><trkpt lat="43.9319728" lon="10.2675154"><ele>34.0</ele><time>2026-04-19T13:30:50.395Z</time></trkpt><trkpt lat="43.932018" lon="10.2674312"><ele>34.0</ele><time>2026-04-19T13:30:51.488Z</time></trkpt><trkpt lat="43.9320684" lon="10.2673348"><ele>34.0</ele><time>2026-04-19T13:30:52.406Z</time></trkpt><trkpt lat="43.9321216" lon="10.2672349"><ele>34.0</ele><time>2026-04-19T13:30:53.421Z</time></trkpt><trkpt lat="43.9321746" lon="10.267136"><ele>34.0</ele><time>2026-04-19T13:30:54.409Z</time></trkpt><trkpt lat="43.9322189" lon="10.2670462"><ele>34.0</ele><time>2026-04-19T13:30:55.413Z</time></trkpt><trkpt lat="43.9322454" lon="10.2669546"><ele>34.0</ele><time>2026-04-19T13:30:56.496Z</time></trkpt><trkpt lat="43.9322689" lon="10.2668584"><ele>34.333333333333336</ele><time>2026-04-19T13:30:57.406Z</time></trkpt><trkpt lat="43.9322841" lon="10.2667553"><ele>34.66666666666667</ele><time>2026-04-19T13:30:58.406Z</time></trkpt><trkpt lat="43.9322986" lon="10.2666455"><ele>35.0</ele><time>2026-04-19T13:30:59.392Z</time></trkpt><trkpt lat="43.9323097" lon="10.2665429"><ele>35.333333333333336</ele><time>2026-04-19T13:31:00.446Z</time></trkpt><trkpt lat="43.9323004" lon="10.2664232"><ele>35.666666666666664</ele><time>2026-04-19T13:31:02.392Z</time></trkpt><trkpt lat="43.9322698" lon="10.2663345"><ele>36.0</ele><time>2026-04-19T13:31:05.433Z</time></trkpt><trkpt lat="43.9322737" lon="10.2662427"><ele>36.0</ele><time>2026-04-19T13:31:07.403Z</time></trkpt><trkpt lat="43.9322629" lon="10.2661124"><ele>36.0</ele><time>2026-04-19T13:31:09.407Z</time></trkpt><trkpt lat="43.9322983" lon="10.2659993"><ele>36.0</ele><time>2026-04-19T13:31:11.414Z</time></trkpt><trkpt lat="43.9323639" lon="10.2659348"><ele>36.0</ele><time>2026-04-19T13:31:14.442Z</time></trkpt><trkpt lat="43.9324279" lon="10.2658889"><ele>36.0</ele><time>2026-04-19T13:31:17.399Z</time></trkpt><trkpt lat="43.9323794" lon="10.2659506"><ele>36.0</ele><time>2026-04-19T13:31:48.412Z</time></trkpt><trkpt lat="43.9323192" lon="10.2660323"><ele>36.00000000000001</ele><time>2026-04-19T13:31:50.425Z</time></trkpt><trkpt lat="43.9322846" lon="10.2661083"><ele>36.0</ele><time>2026-04-19T13:31:52.429Z</time></trkpt><trkpt lat="43.9322773" lon="10.2662009"><ele>36.0</ele><time>2026-04-19T13:31:55.396Z</time></trkpt><trkpt lat="43.9322709" lon="10.2662964"><ele>36.0</ele><time>2026-04-19T13:31:59.46Z</time></trkpt><trkpt lat="43.9322161" lon="10.2662257"><ele>36.0</ele><time>2026-04-19T13:32:03.475Z</time></trkpt><trkpt lat="43.9321901" lon="10.2661254"><ele>36.00000000000001</ele><time>2026-04-19T13:32:05.4Z</time></trkpt><trkpt lat="43.9321624" lon="10.2660141"><ele>36.0</ele><time>2026-04-19T13:32:07.414Z</time></trkpt><trkpt lat="43.9321416" lon="10.2658686"><ele>36.0</ele><time>2026-04-19T13:32:09.447Z</time></trkpt><trkpt lat="43.9321658" lon="10.2657031"><ele>36.0</ele><time>2026-04-19T13:32:11.387Z</time></trkpt><trkpt lat="43.9321796" lon="10.2656164"><ele>36.0</ele><time>2026-04-19T13:32:12.397Z</time></trkpt><trkpt lat="43.9321901" lon="10.2655241"><ele>36.0</ele><time>2026-04-19T13:32:13.382Z</time></trkpt><trkpt lat="43.9322019" lon="10.2654366"><ele>36.0</ele><time>2026-04-19T13:32:14.387Z</time></trkpt><trkpt lat="43.9322306" lon="10.2652672"><ele>36.0</ele><time>2026-04-19T13:32:16.394Z</time></trkpt><trkpt lat="43.9322458" lon="10.2651793"><ele>33.333333333333336</ele><time>2026-04-19T13:32:17.417Z</time></trkpt><trkpt lat="43.9322665" lon="10.2650917"><ele>30.666666666666668</ele><time>2026-04-19T13:32:18.383Z</time></trkpt><trkpt lat="43.9322958" lon="10.2650004"><ele>28.0</ele><time>2026-04-19T13:32:19.398Z</time></trkpt><trkpt lat="43.9323244" lon="10.2649196"><ele>25.333333333333336</ele><time>2026-04-19T13:32:20.407Z</time></trkpt><trkpt lat="43.9323679" lon="10.2648443"><ele>22.666666666666668</ele><time>2026-04-19T13:32:21.38Z</time></trkpt><trkpt lat="43.9324122" lon="10.2647782"><ele>20.0</ele><time>2026-04-19T13:32:22.37Z</time></trkpt><trkpt lat="43.9324928" lon="10.2646437"><ele>18.666666666666668</ele><time>2026-04-19T13:32:24.431Z</time></trkpt><trkpt lat="43.9325375" lon="10.2645633"><ele>17.333333333333336</ele><time>2026-04-19T13:32:25.378Z</time></trkpt><trkpt lat="43.932584" lon="10.2644766"><ele>16.0</ele><time>2026-04-19T13:32:26.414Z</time></trkpt><trkpt lat="43.9326326" lon="10.2643888"><ele>14.666666666666668</ele><time>2026-04-19T13:32:27.395Z</time></trkpt><trkpt lat="43.9326913" lon="10.2643151"><ele>13.333333333333334</ele><time>2026-04-19T13:32:28.394Z</time></trkpt><trkpt lat="43.9327541" lon="10.2642464"><ele>12.0</ele><time>2026-04-19T13:32:29.406Z</time></trkpt><trkpt lat="43.9328166" lon="10.2641767"><ele>12.0</ele><time>2026-04-19T13:32:30.396Z</time></trkpt><trkpt lat="43.9328793" lon="10.2641003"><ele>12.0</ele><time>2026-04-19T13:32:31.442Z</time></trkpt><trkpt lat="43.9329439" lon="10.2640379"><ele>12.0</ele><time>2026-04-19T13:32:32.419Z</time></trkpt><trkpt lat="43.9330096" lon="10.2639716"><ele>12.0</ele><time>2026-04-19T13:32:33.393Z</time></trkpt><trkpt lat="43.9330713" lon="10.2639067"><ele>12.0</ele><time>2026-04-19T13:32:34.418Z</time></trkpt><trkpt lat="43.9331332" lon="10.2638346"><ele>12.0</ele><time>2026-04-19T13:32:35.413Z</time></trkpt><trkpt lat="43.9331887" lon="10.2637567"><ele>11.571428571428571</ele><time>2026-04-19T13:32:36.392Z</time></trkpt><trkpt lat="43.9332475" lon="10.2636786"><ele>11.142857142857142</ele><time>2026-04-19T13:32:37.427Z</time></trkpt><trkpt lat="43.933304" lon="10.2636093"><ele>10.714285714285715</ele><time>2026-04-19T13:32:38.4Z</time></trkpt><trkpt lat="43.9333609" lon="10.2635331"><ele>10.285714285714285</ele><time>2026-04-19T13:32:39.398Z</time></trkpt><trkpt lat="43.9334148" lon="10.2634618"><ele>9.857142857142858</ele><time>2026-04-19T13:32:40.421Z</time></trkpt><trkpt lat="43.933471" lon="10.2634011"><ele>9.428571428571429</ele><time>2026-04-19T13:32:41.498Z</time></trkpt><trkpt lat="43.9335241" lon="10.2633469"><ele>9.0</ele><time>2026-04-19T13:32:42.439Z</time></trkpt><trkpt lat="43.9336078" lon="10.2632596"><ele>9.5</ele><time>2026-04-19T13:32:44.397Z</time></trkpt><trkpt lat="43.9336844" lon="10.263176"><ele>10.0</ele><time>2026-04-19T13:32:46.444Z</time></trkpt><trkpt lat="43.933745" lon="10.2631062"><ele>10.5</ele><time>2026-04-19T13:32:48.386Z</time></trkpt><trkpt lat="43.9337997" lon="10.2630517"><ele>11.0</ele><time>2026-04-19T13:32:53.453Z</time></trkpt><trkpt lat="43.9338489" lon="10.2631201"><ele>11.5</ele><time>2026-04-19T13:32:56.401Z</time></trkpt><trkpt lat="43.9338934" lon="10.2632224"><ele>12.0</ele><time>2026-04-19T13:32:58.446Z</time></trkpt><trkpt lat="43.9339765" lon="10.2633578"><ele>12.833333333333334</ele><time>2026-04-19T13:33:00.405Z</time></trkpt><trkpt lat="43.9340252" lon="10.2634268"><ele>13.666666666666668</ele><time>2026-04-19T13:33:01.4Z</time></trkpt><trkpt lat="43.9340806" lon="10.2635039"><ele>14.5</ele><time>2026-04-19T13:33:02.377Z</time></trkpt><trkpt lat="43.9341331" lon="10.2635667"><ele>15.333333333333334</ele><time>2026-04-19T13:33:03.391Z</time></trkpt><trkpt lat="43.934175" lon="10.2636573"><ele>16.166666666666668</ele><time>2026-04-19T13:33:04.409Z</time></trkpt><trkpt lat="43.9342257" lon="10.2637611"><ele>17.0</ele><time>2026-04-19T13:33:05.436Z</time></trkpt><trkpt lat="43.9342816" lon="10.2638533"><ele>21.166666666666668</ele><time>2026-04-19T13:33:06.421Z</time></trkpt><trkpt lat="43.9343365" lon="10.2639506"><ele>25.333333333333336</ele><time>2026-04-19T13:33:07.408Z</time></trkpt><trkpt lat="43.9343726" lon="10.2640697"><ele>29.5</ele><time>2026-04-19T13:33:08.415Z</time></trkpt><trkpt lat="43.9343981" lon="10.2641845"><ele>33.666666666666664</ele><time>2026-04-19T13:33:09.456Z</time></trkpt><trkpt lat="43.9344284" lon="10.2642897"><ele>37.833333333333336</ele><time>2026-04-19T13:33:10.368Z</time></trkpt><trkpt lat="43.9344603" lon="10.2643934"><ele>42.0</ele><time>2026-04-19T13:33:11.428Z</time></trkpt><trkpt lat="43.9345076" lon="10.2645329"><ele>42.0</ele><time>2026-04-19T13:33:13.404Z</time></trkpt><trkpt lat="43.9345805" lon="10.264637"><ele>42.0</ele><time>2026-04-19T13:33:15.384Z</time></trkpt><trkpt lat="43.9346371" lon="10.2646851"><ele>42.0</ele><time>2026-04-19T13:33:16.435Z</time></trkpt><trkpt lat="43.9346951" lon="10.2647233"><ele>42.0</ele><time>2026-04-19T13:33:17.398Z</time></trkpt><trkpt lat="43.9347581" lon="10.2647572"><ele>42.0</ele><time>2026-04-19T13:33:18.395Z</time></trkpt><trkpt lat="43.9348307" lon="10.2647907"><ele>42.0</ele><time>2026-04-19T13:33:19.403Z</time></trkpt><trkpt lat="43.9349061" lon="10.2648218"><ele>42.0</ele><time>2026-04-19T13:33:20.371Z</time></trkpt><trkpt lat="43.9349818" lon="10.2648496"><ele>42.0</ele><time>2026-04-19T13:33:21.383Z</time></trkpt><trkpt lat="43.9350716" lon="10.2648687"><ele>42.0</ele><time>2026-04-19T13:33:23.385Z</time></trkpt><trkpt lat="43.9351286" lon="10.2648048"><ele>42.0</ele><time>2026-04-19T13:33:26.383Z</time></trkpt><trkpt lat="43.9350469" lon="10.2647016"><ele>42.0</ele><time>2026-04-19T13:33:30.379Z</time></trkpt><trkpt lat="43.9349523" lon="10.2646045"><ele>42.0</ele><time>2026-04-19T13:33:32.377Z</time></trkpt><trkpt lat="43.9349059" lon="10.2645446"><ele>42.0</ele><time>2026-04-19T13:33:33.376Z</time></trkpt><trkpt lat="43.9348516" lon="10.2644602"><ele>42.0</ele><time>2026-04-19T13:33:35.383Z</time></trkpt><trkpt lat="43.9348701" lon="10.2643687"><ele>42.0</ele><time>2026-04-19T13:33:38.375Z</time></trkpt><trkpt lat="43.9349527" lon="10.2644216"><ele>42.0</ele><time>2026-04-19T13:33:40.375Z</time></trkpt><trkpt lat="43.9349943" lon="10.2644901"><ele>42.0</ele><time>2026-04-19T13:33:41.424Z</time></trkpt><trkpt lat="43.9350577" lon="10.2645387"><ele>42.0</ele><time>2026-04-19T13:33:42.376Z</time></trkpt><trkpt lat="43.9351245" lon="10.2645807"><ele>44.5</ele><time>2026-04-19T13:33:43.373Z</time></trkpt><trkpt lat="43.9351968" lon="10.2646114"><ele>47.0</ele><time>2026-04-19T13:33:44.382Z</time></trkpt><trkpt lat="43.9352742" lon="10.2646336"><ele>49.5</ele><time>2026-04-19T13:33:45.39Z</time></trkpt><trkpt lat="43.9353577" lon="10.2646557"><ele>52.0</ele><time>2026-04-19T13:33:46.393Z</time></trkpt><trkpt lat="43.9354455" lon="10.2646858"><ele>54.5</ele><time>2026-04-19T13:33:47.383Z</time></trkpt><trkpt lat="43.9355361" lon="10.2647313"><ele>57.0</ele><time>2026-04-19T13:33:48.367Z</time></trkpt><trkpt lat="43.9356191" lon="10.2647887"><ele>57.0</ele><time>2026-04-19T13:33:49.382Z</time></trkpt><trkpt lat="43.9356929" lon="10.2648673"><ele>57.0</ele><time>2026-04-19T13:33:50.378Z</time></trkpt><trkpt lat="43.9357693" lon="10.2649477"><ele>57.0</ele><time>2026-04-19T13:33:51.375Z</time></trkpt><trkpt lat="43.9358531" lon="10.2650335"><ele>57.0</ele><time>2026-04-19T13:33:52.372Z</time></trkpt><trkpt lat="43.9359389" lon="10.2651059"><ele>57.0</ele><time>2026-04-19T13:33:53.39Z</time></trkpt><trkpt lat="43.936019" lon="10.2651642"><ele>63.2</ele><time>2026-04-19T13:33:54.398Z</time></trkpt><trkpt lat="43.9360868" lon="10.2652183"><ele>69.4</ele><time>2026-04-19T13:33:55.4Z</time></trkpt><trkpt lat="43.9361379" lon="10.2653096"><ele>75.60000000000001</ele><time>2026-04-19T13:33:56.388Z</time></trkpt><trkpt lat="43.9361834" lon="10.2654143"><ele>81.80000000000001</ele><time>2026-04-19T13:33:57.384Z</time></trkpt><trkpt lat="43.9362016" lon="10.2655651"><ele>88.0</ele><time>2026-04-19T13:33:58.388Z</time></trkpt><trkpt lat="43.9362109" lon="10.2657511"><ele>88.0</ele><time>2026-04-19T13:33:59.424Z</time></trkpt><trkpt lat="43.9362176" lon="10.2659061"><ele>88.0</ele><time>2026-04-19T13:34:00.395Z</time></trkpt><trkpt lat="43.9362265" lon="10.266062"><ele>88.0</ele><time>2026-04-19T13:34:01.401Z</time></trkpt><trkpt lat="43.9362412" lon="10.2662071"><ele>88.0</ele><time>2026-04-19T13:34:02.388Z</time></trkpt><trkpt lat="43.936259" lon="10.2663361"><ele>88.0</ele><time>2026-04-19T13:34:03.389Z</time></trkpt><trkpt lat="43.9362729" lon="10.2664372"><ele>85.60000000000001</ele><time>2026-04-19T13:34:04.372Z</time></trkpt><trkpt lat="43.9363093" lon="10.2665461"><ele>83.2</ele><time>2026-04-19T13:34:06.376Z</time></trkpt><trkpt lat="43.936345" lon="10.2666527"><ele>80.8</ele><time>2026-04-19T13:34:08.364Z</time></trkpt><trkpt lat="43.9363906" lon="10.2667598"><ele>78.4</ele><time>2026-04-19T13:34:10.366Z</time></trkpt><trkpt lat="43.936464" lon="10.2668948"><ele>76.0</ele><time>2026-04-19T13:34:12.377Z</time></trkpt><trkpt lat="43.9365079" lon="10.2669718"><ele>76.0</ele><time>2026-04-19T13:34:13.382Z</time></trkpt><trkpt lat="43.9365463" lon="10.2670534"><ele>76.0</ele><time>2026-04-19T13:34:14.374Z</time></trkpt><trkpt lat="43.9365653" lon="10.2672017"><ele>76.0</ele><time>2026-04-19T13:34:16.428Z</time></trkpt><trkpt lat="43.9365564" lon="10.2672918"><ele>76.0</ele><time>2026-04-19T13:34:17.369Z</time></trkpt><trkpt lat="43.9365413" lon="10.2673918"><ele>76.0</ele><time>2026-04-19T13:34:18.384Z</time></trkpt><trkpt lat="43.9365261" lon="10.2675071"><ele>76.0</ele><time>2026-04-19T13:34:19.373Z</time></trkpt><trkpt lat="43.9365058" lon="10.2676273"><ele>77.19999999999999</ele><time>2026-04-19T13:34:20.38Z</time></trkpt><trkpt lat="43.9364782" lon="10.2677489"><ele>78.39999999999999</ele><time>2026-04-19T13:34:21.376Z</time></trkpt><trkpt lat="43.9364593" lon="10.26785"><ele>79.6</ele><time>2026-04-19T13:34:22.374Z</time></trkpt><trkpt lat="43.9364507" lon="10.2680151"><ele>80.8</ele><time>2026-04-19T13:34:24.38Z</time></trkpt><trkpt lat="43.9363909" lon="10.2681692"><ele>82.0</ele><time>2026-04-19T13:34:26.379Z</time></trkpt><trkpt lat="43.9363119" lon="10.2682824"><ele>82.5</ele><time>2026-04-19T13:34:28.387Z</time></trkpt><trkpt lat="43.9362949" lon="10.2684659"><ele>83.0</ele><time>2026-04-19T13:34:30.389Z</time></trkpt><trkpt lat="43.9362928" lon="10.2685741"><ele>83.5</ele><time>2026-04-19T13:34:31.381Z</time></trkpt><trkpt lat="43.9362875" lon="10.2686741"><ele>84.0</ele><time>2026-04-19T13:34:32.382Z</time></trkpt><trkpt lat="43.9362923" lon="10.2687719"><ele>84.5</ele><time>2026-04-19T13:34:33.389Z</time></trkpt><trkpt lat="43.9363164" lon="10.2688665"><ele>85.0</ele><time>2026-04-19T13:34:34.378Z</time></trkpt><trkpt lat="43.9363557" lon="10.2689607"><ele>86.8</ele><time>2026-04-19T13:34:35.379Z</time></trkpt><trkpt lat="43.9364028" lon="10.2690511"><ele>88.6</ele><time>2026-04-19T13:34:36.386Z</time></trkpt><trkpt lat="43.9364493" lon="10.269146"><ele>90.4</ele><time>2026-04-19T13:34:37.385Z</time></trkpt><trkpt lat="43.9364926" lon="10.2692316"><ele>92.2</ele><time>2026-04-19T13:34:38.389Z</time></trkpt><trkpt lat="43.9365369" lon="10.2693805"><ele>94.0</ele><time>2026-04-19T13:34:40.374Z</time></trkpt><trkpt lat="43.9365084" lon="10.2695393"><ele>94.0</ele><time>2026-04-19T13:34:42.399Z</time></trkpt><trkpt lat="43.936418" lon="10.2696481"><ele>94.0</ele><time>2026-04-19T13:34:44.365Z</time></trkpt><trkpt lat="43.9364045" lon="10.2697372"><ele>94.0</ele><time>2026-04-19T13:34:49.386Z</time></trkpt><trkpt lat="43.9365287" lon="10.2697273"><ele>94.0</ele><time>2026-04-19T13:34:51.378Z</time></trkpt><trkpt lat="43.9366057" lon="10.2696956"><ele>94.0</ele><time>2026-04-19T13:34:52.373Z</time></trkpt><trkpt lat="43.9366846" lon="10.2696602"><ele>97.2</ele><time>2026-04-19T13:34:53.367Z</time></trkpt><trkpt lat="43.9367606" lon="10.2696065"><ele>100.4</ele><time>2026-04-19T13:34:54.388Z</time></trkpt><trkpt lat="43.9368247" lon="10.2695485"><ele>103.6</ele><time>2026-04-19T13:34:55.382Z</time></trkpt><trkpt lat="43.9369108" lon="10.2694765"><ele>106.8</ele><time>2026-04-19T13:34:57.384Z</time></trkpt><trkpt lat="43.9369986" lon="10.2695169"><ele>110.0</ele><time>2026-04-19T13:35:00.361Z</time></trkpt><trkpt lat="43.9369656" lon="10.2696584"><ele>109.99999999999999</ele><time>2026-04-19T13:35:02.387Z</time></trkpt><trkpt lat="43.9369142" lon="10.2697345"><ele>110.0</ele><time>2026-04-19T13:35:03.382Z</time></trkpt><trkpt lat="43.936856" lon="10.2698246"><ele>110.0</ele><time>2026-04-19T13:35:04.387Z</time></trkpt><trkpt lat="43.9367872" lon="10.269911"><ele>110.0</ele><time>2026-04-19T13:35:05.382Z</time></trkpt><trkpt lat="43.9367172" lon="10.2699947"><ele>109.99999999999999</ele><time>2026-04-19T13:35:06.385Z</time></trkpt><trkpt lat="43.9366454" lon="10.2700358"><ele>110.0</ele><time>2026-04-19T13:35:07.383Z</time></trkpt><trkpt lat="43.9365588" lon="10.2700743"><ele>110.8</ele><time>2026-04-19T13:35:09.379Z</time></trkpt><trkpt lat="43.936572" lon="10.2701846"><ele>111.6</ele><time>2026-04-19T13:35:13.388Z</time></trkpt><trkpt lat="43.9366943" lon="10.2702164"><ele>112.4</ele><time>2026-04-19T13:35:15.371Z</time></trkpt><trkpt lat="43.9367827" lon="10.2702196"><ele>113.2</ele><time>2026-04-19T13:35:16.381Z</time></trkpt><trkpt lat="43.9368774" lon="10.2701984"><ele>114.0</ele><time>2026-04-19T13:35:17.38Z</time></trkpt><trkpt lat="43.9369735" lon="10.2701561"><ele>116.6</ele><time>2026-04-19T13:35:18.382Z</time></trkpt><trkpt lat="43.9370734" lon="10.270113"><ele>119.2</ele><time>2026-04-19T13:35:19.372Z</time></trkpt><trkpt lat="43.937168" lon="10.2700782"><ele>121.79999999999998</ele><time>2026-04-19T13:35:20.376Z</time></trkpt><trkpt lat="43.9372557" lon="10.270046"><ele>124.39999999999999</ele><time>2026-04-19T13:35:21.386Z</time></trkpt><trkpt lat="43.9373267" lon="10.270017"><ele>127.0</ele><time>2026-04-19T13:35:22.386Z</time></trkpt><trkpt lat="43.9374062" lon="10.2699757"><ele>127.0</ele><time>2026-04-19T13:35:25.378Z</time></trkpt><trkpt lat="43.9374512" lon="10.27006"><ele>126.99999999999999</ele><time>2026-04-19T13:35:27.388Z</time></trkpt><trkpt lat="43.9373876" lon="10.2702251"><ele>126.99999999999999</ele><time>2026-04-19T13:35:29.391Z</time></trkpt><trkpt lat="43.9373347" lon="10.270321"><ele>127.0</ele><time>2026-04-19T13:35:30.387Z</time></trkpt><trkpt lat="43.9372802" lon="10.2704224"><ele>127.0</ele><time>2026-04-19T13:35:31.395Z</time></trkpt><trkpt lat="43.9372235" lon="10.2705267"><ele>131.2</ele><time>2026-04-19T13:35:32.365Z</time></trkpt><trkpt lat="43.9371607" lon="10.2706271"><ele>135.39999999999998</ele><time>2026-04-19T13:35:33.388Z</time></trkpt><trkpt lat="43.937096" lon="10.2707104"><ele>139.60000000000002</ele><time>2026-04-19T13:35:34.37Z</time></trkpt><trkpt lat="43.9370181" lon="10.2707615"><ele>143.8</ele><time>2026-04-19T13:35:35.376Z</time></trkpt><trkpt lat="43.936932" lon="10.2707994"><ele>148.0</ele><time>2026-04-19T13:35:36.391Z</time></trkpt><trkpt lat="43.9368329" lon="10.2708135"><ele>148.0</ele><time>2026-04-19T13:35:37.383Z</time></trkpt><trkpt lat="43.9367355" lon="10.2708"><ele>148.0</ele><time>2026-04-19T13:35:38.372Z</time></trkpt><trkpt lat="43.9366388" lon="10.2707788"><ele>148.0</ele><time>2026-04-19T13:35:39.373Z</time></trkpt><trkpt lat="43.9365252" lon="10.2707505"><ele>148.0</ele><time>2026-04-19T13:35:40.397Z</time></trkpt><trkpt lat="43.9364012" lon="10.2707082"><ele>148.0</ele><time>2026-04-19T13:35:41.398Z</time></trkpt><trkpt lat="43.9362969" lon="10.2706551"><ele>142.66666666666669</ele><time>2026-04-19T13:35:42.392Z</time></trkpt><trkpt lat="43.9362133" lon="10.2705979"><ele>137.33333333333334</ele><time>2026-04-19T13:35:43.372Z</time></trkpt><trkpt lat="43.9361398" lon="10.2705441"><ele>132.0</ele><time>2026-04-19T13:35:44.395Z</time></trkpt><trkpt lat="43.9360782" lon="10.2705028"><ele>126.66666666666666</ele><time>2026-04-19T13:35:45.443Z</time></trkpt><trkpt lat="43.9359557" lon="10.2704827"><ele>121.33333333333333</ele><time>2026-04-19T13:35:47.378Z</time></trkpt><trkpt lat="43.935882" lon="10.2705211"><ele>116.0</ele><time>2026-04-19T13:35:48.39Z</time></trkpt><trkpt lat="43.9358061" lon="10.2705817"><ele>119.33333333333333</ele><time>2026-04-19T13:35:49.38Z</time></trkpt><trkpt lat="43.9357303" lon="10.2706342"><ele>122.66666666666666</ele><time>2026-04-19T13:35:50.37Z</time></trkpt><trkpt lat="43.9356511" lon="10.2706632"><ele>126.0</ele><time>2026-04-19T13:35:51.382Z</time></trkpt><trkpt lat="43.9355779" lon="10.2706863"><ele>129.33333333333334</ele><time>2026-04-19T13:35:52.385Z</time></trkpt><trkpt lat="43.935513" lon="10.2707043"><ele>132.66666666666669</ele><time>2026-04-19T13:35:53.378Z</time></trkpt><trkpt lat="43.935451" lon="10.2707213"><ele>136.0</ele><time>2026-04-19T13:35:54.381Z</time></trkpt><trkpt lat="43.9353644" lon="10.2708059"><ele>136.0</ele><time>2026-04-19T13:35:56.381Z</time></trkpt><trkpt lat="43.9353298" lon="10.2709693"><ele>136.0</ele><time>2026-04-19T13:35:58.39Z</time></trkpt><trkpt lat="43.9353456" lon="10.2710788"><ele>136.0</ele><time>2026-04-19T13:36:00.394Z</time></trkpt><trkpt lat="43.9353694" lon="10.271167"><ele>136.0</ele><time>2026-04-19T13:36:02.399Z</time></trkpt><trkpt lat="43.9354042" lon="10.2712512"><ele>136.0</ele><time>2026-04-19T13:36:04.391Z</time></trkpt><trkpt lat="43.9354656" lon="10.2713278"><ele>136.0</ele><time>2026-04-19T13:36:06.405Z</time></trkpt><trkpt lat="43.9355371" lon="10.2713924"><ele>136.0</ele><time>2026-04-19T13:36:08.393Z</time></trkpt><trkpt lat="43.935611" lon="10.2714258"><ele>136.0</ele><time>2026-04-19T13:36:09.411Z</time></trkpt><trkpt lat="43.9357035" lon="10.2714559"><ele>136.0</ele><time>2026-04-19T13:36:10.419Z</time></trkpt><trkpt lat="43.935796" lon="10.2714987"><ele>136.0</ele><time>2026-04-19T13:36:11.39Z</time></trkpt><trkpt lat="43.9358772" lon="10.2715372"><ele>136.0</ele><time>2026-04-19T13:36:12.415Z</time></trkpt><trkpt lat="43.9359555" lon="10.2715693"><ele>136.0</ele><time>2026-04-19T13:36:13.388Z</time></trkpt><trkpt lat="43.9360371" lon="10.2716105"><ele>138.16666666666669</ele><time>2026-04-19T13:36:14.378Z</time></trkpt><trkpt lat="43.9361058" lon="10.2716566"><ele>140.33333333333334</ele><time>2026-04-19T13:36:15.38Z</time></trkpt><trkpt lat="43.936183" lon="10.2717401"><ele>142.5</ele><time>2026-04-19T13:36:16.384Z</time></trkpt><trkpt lat="43.936245" lon="10.2718037"><ele>144.66666666666666</ele><time>2026-04-19T13:36:17.389Z</time></trkpt><trkpt lat="43.9363047" lon="10.2718638"><ele>146.83333333333331</ele><time>2026-04-19T13:36:18.391Z</time></trkpt><trkpt lat="43.9363579" lon="10.2719258"><ele>149.0</ele><time>2026-04-19T13:36:19.388Z</time></trkpt><trkpt lat="43.9364105" lon="10.2720031"><ele>149.0</ele><time>2026-04-19T13:36:20.417Z</time></trkpt><trkpt lat="43.9364598" lon="10.2720978"><ele>149.0</ele><time>2026-04-19T13:36:21.375Z</time></trkpt><trkpt lat="43.9365008" lon="10.2721983"><ele>149.0</ele><time>2026-04-19T13:36:22.367Z</time></trkpt><trkpt lat="43.93654" lon="10.2723159"><ele>149.0</ele><time>2026-04-19T13:36:23.403Z</time></trkpt><trkpt lat="43.9365634" lon="10.2724398"><ele>149.0</ele><time>2026-04-19T13:36:24.381Z</time></trkpt><trkpt lat="43.9365835" lon="10.2725637"><ele>149.0</ele><time>2026-04-19T13:36:25.38Z</time></trkpt><trkpt lat="43.9365981" lon="10.2726725"><ele>148.0</ele><time>2026-04-19T13:36:26.398Z</time></trkpt><trkpt lat="43.936596" lon="10.2727793"><ele>147.0</ele><time>2026-04-19T13:36:27.437Z</time></trkpt><trkpt lat="43.9365713" lon="10.2728749"><ele>146.0</ele><time>2026-04-19T13:36:28.419Z</time></trkpt><trkpt lat="43.9365348" lon="10.2729643"><ele>145.0</ele><time>2026-04-19T13:36:29.383Z</time></trkpt><trkpt lat="43.9364899" lon="10.2730506"><ele>144.0</ele><time>2026-04-19T13:36:30.421Z</time></trkpt><trkpt lat="43.9364504" lon="10.273125"><ele>143.0</ele><time>2026-04-19T13:36:31.414Z</time></trkpt><trkpt lat="43.9364072" lon="10.2732284"><ele>143.0</ele><time>2026-04-19T13:36:33.431Z</time></trkpt><trkpt lat="43.936466" lon="10.2733051"><ele>143.0</ele><time>2026-04-19T13:36:37.391Z</time></trkpt><trkpt lat="43.9365674" lon="10.2732786"><ele>143.0</ele><time>2026-04-19T13:36:39.371Z</time></trkpt><trkpt lat="43.9366714" lon="10.2733072"><ele>143.0</ele><time>2026-04-19T13:36:41.371Z</time></trkpt><trkpt lat="43.9367504" lon="10.2733641"><ele>143.0</ele><time>2026-04-19T13:36:45.408Z</time></trkpt><trkpt lat="43.9368121" lon="10.2733829"><ele>143.0</ele><time>2026-04-19T13:36:47.369Z</time></trkpt><trkpt lat="43.9368932" lon="10.2733855"><ele>144.0</ele><time>2026-04-19T13:36:48.37Z</time></trkpt><trkpt lat="43.9369861" lon="10.273374"><ele>145.0</ele><time>2026-04-19T13:36:49.381Z</time></trkpt><trkpt lat="43.9370769" lon="10.2733658"><ele>146.0</ele><time>2026-04-19T13:36:50.38Z</time></trkpt><trkpt lat="43.9371568" lon="10.2733568"><ele>147.0</ele><time>2026-04-19T13:36:51.39Z</time></trkpt><trkpt lat="43.9372296" lon="10.2733471"><ele>148.0</ele><time>2026-04-19T13:36:52.391Z</time></trkpt><trkpt lat="43.9373393" lon="10.2733521"><ele>149.0</ele><time>2026-04-19T13:36:54.383Z</time></trkpt><trkpt lat="43.9374272" lon="10.2733766"><ele>149.0</ele><time>2026-04-19T13:36:56.384Z</time></trkpt><trkpt lat="43.9374882" lon="10.2734139"><ele>149.0</ele><time>2026-04-19T13:36:58.389Z</time></trkpt><trkpt lat="43.9375081" lon="10.2735026"><ele>149.0</ele><time>2026-04-19T13:37:00.369Z</time></trkpt><trkpt lat="43.9374587" lon="10.2735727"><ele>149.0</ele><time>2026-04-19T13:37:02.375Z</time></trkpt><trkpt lat="43.9373836" lon="10.2736088"><ele>149.0</ele><time>2026-04-19T13:37:04.435Z</time></trkpt><trkpt lat="43.9372718" lon="10.2736802"><ele>149.0</ele><time>2026-04-19T13:37:06.408Z</time></trkpt><trkpt lat="43.9372017" lon="10.2737156"><ele>149.0</ele><time>2026-04-19T13:37:07.392Z</time></trkpt><trkpt lat="43.937127" lon="10.2737637"><ele>149.0</ele><time>2026-04-19T13:37:08.397Z</time></trkpt><trkpt lat="43.9370658" lon="10.273812"><ele>149.0</ele><time>2026-04-19T13:37:09.412Z</time></trkpt><trkpt lat="43.9369776" lon="10.2739514"><ele>149.0</ele><time>2026-04-19T13:37:11.391Z</time></trkpt><trkpt lat="43.9369318" lon="10.2740441"><ele>149.0</ele><time>2026-04-19T13:37:12.401Z</time></trkpt><trkpt lat="43.9368912" lon="10.274142"><ele>149.0</ele><time>2026-04-19T13:37:13.384Z</time></trkpt><trkpt lat="43.9368524" lon="10.2742324"><ele>149.14285714285714</ele><time>2026-04-19T13:37:14.398Z</time></trkpt><trkpt lat="43.9368154" lon="10.2743058"><ele>149.28571428571428</ele><time>2026-04-19T13:37:15.436Z</time></trkpt><trkpt lat="43.9367813" lon="10.2743841"><ele>149.42857142857142</ele><time>2026-04-19T13:37:16.423Z</time></trkpt><trkpt lat="43.9367336" lon="10.2744527"><ele>149.57142857142856</ele><time>2026-04-19T13:37:17.408Z</time></trkpt><trkpt lat="43.9366856" lon="10.2745265"><ele>149.71428571428572</ele><time>2026-04-19T13:37:18.379Z</time></trkpt><trkpt lat="43.9366352" lon="10.2746078"><ele>149.85714285714283</ele><time>2026-04-19T13:37:19.454Z</time></trkpt><trkpt lat="43.9365953" lon="10.2747002"><ele>150.0</ele><time>2026-04-19T13:37:20.426Z</time></trkpt><trkpt lat="43.9365602" lon="10.2747836"><ele>147.6</ele><time>2026-04-19T13:37:21.413Z</time></trkpt><trkpt lat="43.936527" lon="10.2748599"><ele>145.2</ele><time>2026-04-19T13:37:22.384Z</time></trkpt><trkpt lat="43.9364474" lon="10.2749902"><ele>142.8</ele><time>2026-04-19T13:37:24.406Z</time></trkpt><trkpt lat="43.9363673" lon="10.275111"><ele>140.4</ele><time>2026-04-19T13:37:26.395Z</time></trkpt><trkpt lat="43.9363196" lon="10.2751706"><ele>138.0</ele><time>2026-04-19T13:37:27.385Z</time></trkpt><trkpt lat="43.9362315" lon="10.2752817"><ele>138.0</ele><time>2026-04-19T13:37:29.387Z</time></trkpt><trkpt lat="43.9361405" lon="10.2754031"><ele>138.0</ele><time>2026-04-19T13:37:31.384Z</time></trkpt><trkpt lat="43.9360975" lon="10.2754857"><ele>138.0</ele><time>2026-04-19T13:37:32.406Z</time></trkpt><trkpt lat="43.9360579" lon="10.2755625"><ele>138.0</ele><time>2026-04-19T13:37:33.406Z</time></trkpt><trkpt lat="43.9359765" lon="10.2756649"><ele>138.0</ele><time>2026-04-19T13:37:35.393Z</time></trkpt><trkpt lat="43.9359155" lon="10.2757296"><ele>140.6</ele><time>2026-04-19T13:37:37.386Z</time></trkpt><trkpt lat="43.9358641" lon="10.2758057"><ele>143.20000000000002</ele><time>2026-04-19T13:37:40.4Z</time></trkpt><trkpt lat="43.9358174" lon="10.2758696"><ele>145.8</ele><time>2026-04-19T13:37:49.4Z</time></trkpt><trkpt lat="43.9359117" lon="10.2760505"><ele>148.4</ele><time>2026-04-19T13:37:53.381Z</time></trkpt><trkpt lat="43.9359689" lon="10.2761267"><ele>151.0</ele><time>2026-04-19T13:37:54.389Z</time></trkpt><trkpt lat="43.9360262" lon="10.2761955"><ele>151.0</ele><time>2026-04-19T13:37:55.384Z</time></trkpt><trkpt lat="43.9360936" lon="10.27627"><ele>151.0</ele><time>2026-04-19T13:37:56.394Z</time></trkpt><trkpt lat="43.9361658" lon="10.2763459"><ele>151.0</ele><time>2026-04-19T13:37:57.378Z</time></trkpt><trkpt lat="43.9362459" lon="10.2764385"><ele>151.0</ele><time>2026-04-19T13:37:58.381Z</time></trkpt><trkpt lat="43.9363222" lon="10.2765276"><ele>151.0</ele><time>2026-04-19T13:37:59.377Z</time></trkpt><trkpt lat="43.9363957" lon="10.2766053"><ele>149.5</ele><time>2026-04-19T13:38:00.379Z</time></trkpt><trkpt lat="43.9364626" lon="10.2766807"><ele>148.0</ele><time>2026-04-19T13:38:01.386Z</time></trkpt><trkpt lat="43.9365305" lon="10.276753"><ele>146.5</ele><time>2026-04-19T13:38:02.393Z</time></trkpt><trkpt lat="43.9365952" lon="10.2768211"><ele>145.0</ele><time>2026-04-19T13:38:03.385Z</time></trkpt><trkpt lat="43.9366564" lon="10.2768846"><ele>143.5</ele><time>2026-04-19T13:38:04.374Z</time></trkpt><trkpt lat="43.9367137" lon="10.2769413"><ele>142.0</ele><time>2026-04-19T13:38:05.375Z</time></trkpt><trkpt lat="43.9367817" lon="10.2769843"><ele>146.5</ele><time>2026-04-19T13:38:06.385Z</time></trkpt><trkpt lat="43.9368564" lon="10.2770176"><ele>151.0</ele><time>2026-04-19T13:38:07.382Z</time></trkpt><trkpt lat="43.9369405" lon="10.2770414"><ele>155.5</ele><time>2026-04-19T13:38:08.369Z</time></trkpt><trkpt lat="43.9370284" lon="10.2770543"><ele>160.0</ele><time>2026-04-19T13:38:09.385Z</time></trkpt><trkpt lat="43.9371204" lon="10.2770666"><ele>164.5</ele><time>2026-04-19T13:38:10.388Z</time></trkpt><trkpt lat="43.937203" lon="10.2770795"><ele>169.0</ele><time>2026-04-19T13:38:11.368Z</time></trkpt><trkpt lat="43.9373045" lon="10.2771324"><ele>169.0</ele><time>2026-04-19T13:38:13.39Z</time></trkpt><trkpt lat="43.9373688" lon="10.2771954"><ele>169.0</ele><time>2026-04-19T13:38:15.376Z</time></trkpt><trkpt lat="43.9374367" lon="10.2772755"><ele>169.0</ele><time>2026-04-19T13:38:18.367Z</time></trkpt><trkpt lat="43.9374565" lon="10.2773652"><ele>169.0</ele><time>2026-04-19T13:38:20.366Z</time></trkpt><trkpt lat="43.9374164" lon="10.2772973"><ele>169.0</ele><time>2026-04-19T13:39:00.377Z</time></trkpt><trkpt lat="43.9374139" lon="10.2771716"><ele>169.0</ele><time>2026-04-19T13:39:02.388Z</time></trkpt><trkpt lat="43.937367" lon="10.2770577"><ele>169.0</ele><time>2026-04-19T13:39:04.385Z</time></trkpt><trkpt lat="43.9373123" lon="10.2770021"><ele>169.0</ele><time>2026-04-19T13:39:05.376Z</time></trkpt><trkpt lat="43.9372201" lon="10.2769319"><ele>169.0</ele><time>2026-04-19T13:39:07.376Z</time></trkpt><trkpt lat="43.9371736" lon="10.2768617"><ele>169.0</ele><time>2026-04-19T13:39:09.379Z</time></trkpt><trkpt lat="43.9371944" lon="10.2767588"><ele>169.0</ele><time>2026-04-19T13:39:11.393Z</time></trkpt><trkpt lat="43.9372758" lon="10.2767425"><ele>169.0</ele><time>2026-04-19T13:39:13.37Z</time></trkpt><trkpt lat="43.9373886" lon="10.2768001"><ele>169.0</ele><time>2026-04-19T13:39:15.378Z</time></trkpt><trkpt lat="43.9374525" lon="10.2768403"><ele>169.0</ele><time>2026-04-19T13:39:16.371Z</time></trkpt><trkpt lat="43.937522" lon="10.2768787"><ele>169.0</ele><time>2026-04-19T13:39:17.379Z</time></trkpt><trkpt lat="43.9375821" lon="10.2769145"><ele>169.0</ele><time>2026-04-19T13:39:18.38Z</time></trkpt><trkpt lat="43.9376625" lon="10.2770036"><ele>169.0</ele><time>2026-04-19T13:39:20.371Z</time></trkpt><trkpt lat="43.9377204" lon="10.2771593"><ele>169.0</ele><time>2026-04-19T13:39:22.375Z</time></trkpt><trkpt lat="43.937741" lon="10.2772521"><ele>171.83333333333334</ele><time>2026-04-19T13:39:23.381Z</time></trkpt><trkpt lat="43.9377547" lon="10.2773454"><ele>174.66666666666669</ele><time>2026-04-19T13:39:24.376Z</time></trkpt><trkpt lat="43.9377632" lon="10.2774447"><ele>177.5</ele><time>2026-04-19T13:39:25.386Z</time></trkpt><trkpt lat="43.9377696" lon="10.2775421"><ele>180.33333333333334</ele><time>2026-04-19T13:39:26.385Z</time></trkpt><trkpt lat="43.9377702" lon="10.2776944"><ele>183.16666666666666</ele><time>2026-04-19T13:39:28.379Z</time></trkpt><trkpt lat="43.9377929" lon="10.2777851"><ele>186.0</ele><time>2026-04-19T13:39:29.383Z</time></trkpt><trkpt lat="43.937829" lon="10.2778817"><ele>186.0</ele><time>2026-04-19T13:39:30.385Z</time></trkpt><trkpt lat="43.9378668" lon="10.2779884"><ele>186.0</ele><time>2026-04-19T13:39:31.382Z</time></trkpt><trkpt lat="43.9379041" lon="10.2780922"><ele>186.0</ele><time>2026-04-19T13:39:32.385Z</time></trkpt><trkpt lat="43.9379375" lon="10.2781794"><ele>186.0</ele><time>2026-04-19T13:39:33.371Z</time></trkpt><trkpt lat="43.9380021" lon="10.2783235"><ele>186.0</ele><time>2026-04-19T13:39:35.372Z</time></trkpt><trkpt lat="43.9380414" lon="10.278402"><ele>186.0</ele><time>2026-04-19T13:39:36.368Z</time></trkpt><trkpt lat="43.9380774" lon="10.2784797"><ele>184.0</ele><time>2026-04-19T13:39:37.373Z</time></trkpt><trkpt lat="43.938113" lon="10.2785718"><ele>182.0</ele><time>2026-04-19T13:39:38.372Z</time></trkpt><trkpt lat="43.9381351" lon="10.2786614"><ele>180.0</ele><time>2026-04-19T13:39:39.372Z</time></trkpt><trkpt lat="43.9381761" lon="10.2787527"><ele>178.0</ele><time>2026-04-19T13:39:41.392Z</time></trkpt><trkpt lat="43.9382594" lon="10.278783"><ele>176.0</ele><time>2026-04-19T13:39:44.386Z</time></trkpt><trkpt lat="43.9383537" lon="10.2787161"><ele>174.0</ele><time>2026-04-19T13:39:46.395Z</time></trkpt><trkpt lat="43.93841" lon="10.2786551"><ele>174.0</ele><time>2026-04-19T13:39:47.384Z</time></trkpt><trkpt lat="43.9384765" lon="10.278587"><ele>174.0</ele><time>2026-04-19T13:39:48.376Z</time></trkpt><trkpt lat="43.9385416" lon="10.2785046"><ele>174.0</ele><time>2026-04-19T13:39:49.385Z</time></trkpt><trkpt lat="43.9385889" lon="10.2784312"><ele>174.0</ele><time>2026-04-19T13:39:50.378Z</time></trkpt><trkpt lat="43.9386431" lon="10.2783707"><ele>174.0</ele><time>2026-04-19T13:39:51.383Z</time></trkpt><trkpt lat="43.9387145" lon="10.2783218"><ele>174.0</ele><time>2026-04-19T13:39:52.37Z</time></trkpt><trkpt lat="43.9388032" lon="10.278282"><ele>174.0</ele><time>2026-04-19T13:39:53.406Z</time></trkpt><trkpt lat="43.9388897" lon="10.2782503"><ele>174.0</ele><time>2026-04-19T13:39:54.371Z</time></trkpt><trkpt lat="43.9389746" lon="10.2782289"><ele>174.0</ele><time>2026-04-19T13:39:55.379Z</time></trkpt><trkpt lat="43.9390655" lon="10.2782012"><ele>174.0</ele><time>2026-04-19T13:39:56.373Z</time></trkpt><trkpt lat="43.9391489" lon="10.2781608"><ele>174.0</ele><time>2026-04-19T13:39:57.368Z</time></trkpt><trkpt lat="43.939228" lon="10.2781238"><ele>174.0</ele><time>2026-04-19T13:39:58.375Z</time></trkpt><trkpt lat="43.9393142" lon="10.2780897"><ele>177.66666666666666</ele><time>2026-04-19T13:39:59.379Z</time></trkpt><trkpt lat="43.9393804" lon="10.2780598"><ele>181.33333333333331</ele><time>2026-04-19T13:40:00.375Z</time></trkpt><trkpt lat="43.9394433" lon="10.2780366"><ele>185.0</ele><time>2026-04-19T13:40:02.37Z</time></trkpt><trkpt lat="43.9394997" lon="10.2779637"><ele>188.66666666666666</ele><time>2026-04-19T13:40:06.37Z</time></trkpt><trkpt lat="43.9394212" lon="10.2779149"><ele>192.33333333333331</ele><time>2026-04-19T13:40:09.384Z</time></trkpt><trkpt lat="43.9393092" lon="10.2779273"><ele>196.0</ele><time>2026-04-19T13:40:11.379Z</time></trkpt><trkpt lat="43.939245" lon="10.2779244"><ele>196.28571428571428</ele><time>2026-04-19T13:40:12.368Z</time></trkpt><trkpt lat="43.9391762" lon="10.2779237"><ele>196.57142857142856</ele><time>2026-04-19T13:40:13.38Z</time></trkpt><trkpt lat="43.9391056" lon="10.2779192"><ele>196.85714285714286</ele><time>2026-04-19T13:40:14.38Z</time></trkpt><trkpt lat="43.9390072" lon="10.2779057"><ele>197.14285714285714</ele><time>2026-04-19T13:40:16.384Z</time></trkpt><trkpt lat="43.938936" lon="10.2778801"><ele>197.42857142857142</ele><time>2026-04-19T13:40:20.374Z</time></trkpt><trkpt lat="43.9389041" lon="10.2778037"><ele>197.71428571428572</ele><time>2026-04-19T13:40:30.442Z</time></trkpt><trkpt lat="43.9389716" lon="10.2777816"><ele>198.0</ele><time>2026-04-19T13:40:33.377Z</time></trkpt><trkpt lat="43.9390607" lon="10.2777949"><ele>198.0</ele><time>2026-04-19T13:40:35.392Z</time></trkpt><trkpt lat="43.9391569" lon="10.2777788"><ele>198.0</ele><time>2026-04-19T13:40:37.382Z</time></trkpt><trkpt lat="43.9392217" lon="10.2777549"><ele>198.0</ele><time>2026-04-19T13:40:38.373Z</time></trkpt><trkpt lat="43.9392921" lon="10.2777248"><ele>198.0</ele><time>2026-04-19T13:40:39.368Z</time></trkpt><trkpt lat="43.9393599" lon="10.2776836"><ele>198.0</ele><time>2026-04-19T13:40:40.38Z</time></trkpt><trkpt lat="43.939436" lon="10.2776426"><ele>198.0</ele><time>2026-04-19T13:40:41.39Z</time></trkpt><trkpt lat="43.9395193" lon="10.2776036"><ele>197.71428571428572</ele><time>2026-04-19T13:40:42.366Z</time></trkpt><trkpt lat="43.9395957" lon="10.2775778"><ele>197.42857142857142</ele><time>2026-04-19T13:40:43.379Z</time></trkpt><trkpt lat="43.9396717" lon="10.2775564"><ele>197.14285714285714</ele><time>2026-04-19T13:40:44.38Z</time></trkpt><trkpt lat="43.9397478" lon="10.2775448"><ele>196.85714285714286</ele><time>2026-04-19T13:40:45.379Z</time></trkpt><trkpt lat="43.9398187" lon="10.2775415"><ele>196.57142857142856</ele><time>2026-04-19T13:40:46.374Z</time></trkpt><trkpt lat="43.9398846" lon="10.27755"><ele>196.28571428571428</ele><time>2026-04-19T13:40:47.368Z</time></trkpt><trkpt lat="43.939961" lon="10.2775655"><ele>196.0</ele><time>2026-04-19T13:40:49.379Z</time></trkpt><trkpt lat="43.9400281" lon="10.2775698"><ele>195.99999999999997</ele><time>2026-04-19T13:40:51.385Z</time></trkpt><trkpt lat="43.940092" lon="10.27754"><ele>196.0</ele><time>2026-04-19T13:40:53.394Z</time></trkpt><trkpt lat="43.9400923" lon="10.2774187"><ele>196.0</ele><time>2026-04-19T13:40:56.381Z</time></trkpt><trkpt lat="43.9400164" lon="10.2773522"><ele>196.0</ele><time>2026-04-19T13:40:58.376Z</time></trkpt><trkpt lat="43.9399358" lon="10.2772916"><ele>195.99999999999997</ele><time>2026-04-19T13:41:00.42Z</time></trkpt><trkpt lat="43.9398402" lon="10.277209"><ele>196.0</ele><time>2026-04-19T13:41:04.452Z</time></trkpt><trkpt lat="43.9397503" lon="10.2770925"><ele>197.4</ele><time>2026-04-19T13:41:06.366Z</time></trkpt><trkpt lat="43.9396782" lon="10.276991"><ele>198.8</ele><time>2026-04-19T13:41:08.383Z</time></trkpt><trkpt lat="43.9396536" lon="10.2768856"><ele>200.20000000000002</ele><time>2026-04-19T13:41:10.387Z</time></trkpt><trkpt lat="43.9396555" lon="10.2767412"><ele>201.60000000000002</ele><time>2026-04-19T13:41:12.402Z</time></trkpt><trkpt lat="43.9396597" lon="10.2766104"><ele>203.0</ele><time>2026-04-19T13:41:14.374Z</time></trkpt><trkpt lat="43.9396943" lon="10.2764945"><ele>203.0</ele><time>2026-04-19T13:41:16.4Z</time></trkpt><trkpt lat="43.9397482" lon="10.2764445"><ele>203.0</ele><time>2026-04-19T13:41:17.385Z</time></trkpt><trkpt lat="43.9398161" lon="10.2763846"><ele>203.0</ele><time>2026-04-19T13:41:18.378Z</time></trkpt><trkpt lat="43.9398904" lon="10.2763226"><ele>203.0</ele><time>2026-04-19T13:41:19.379Z</time></trkpt><trkpt lat="43.9399589" lon="10.2762651"><ele>203.0</ele><time>2026-04-19T13:41:20.374Z</time></trkpt><trkpt lat="43.9400141" lon="10.276217"><ele>203.0</ele><time>2026-04-19T13:41:21.389Z</time></trkpt><trkpt lat="43.9400694" lon="10.2761662"><ele>203.0</ele><time>2026-04-19T13:41:22.362Z</time></trkpt><trkpt lat="43.9401221" lon="10.276113"><ele>204.83333333333334</ele><time>2026-04-19T13:41:23.378Z</time></trkpt><trkpt lat="43.9401706" lon="10.2760567"><ele>206.66666666666669</ele><time>2026-04-19T13:41:24.386Z</time></trkpt><trkpt lat="43.940255" lon="10.2759156"><ele>208.5</ele><time>2026-04-19T13:41:26.373Z</time></trkpt><trkpt lat="43.9403006" lon="10.2758329"><ele>210.33333333333331</ele><time>2026-04-19T13:41:27.387Z</time></trkpt><trkpt lat="43.9403386" lon="10.2757468"><ele>212.16666666666666</ele><time>2026-04-19T13:41:28.383Z</time></trkpt><trkpt lat="43.9403803" lon="10.2756211"><ele>214.0</ele><time>2026-04-19T13:41:30.367Z</time></trkpt><trkpt lat="43.9404032" lon="10.2755356"><ele>213.99999999999997</ele><time>2026-04-19T13:41:33.371Z</time></trkpt><trkpt lat="43.9404058" lon="10.2754425"><ele>214.0</ele><time>2026-04-19T13:41:37.381Z</time></trkpt><trkpt lat="43.9403949" lon="10.2755778"><ele>214.0</ele><time>2026-04-19T13:41:51.378Z</time></trkpt><trkpt lat="43.9403557" lon="10.2756875"><ele>214.0</ele><time>2026-04-19T13:41:53.381Z</time></trkpt><trkpt lat="43.940311" lon="10.2757792"><ele>213.99999999999997</ele><time>2026-04-19T13:41:55.377Z</time></trkpt><trkpt lat="43.9402615" lon="10.2758793"><ele>214.0</ele><time>2026-04-19T13:41:57.394Z</time></trkpt><trkpt lat="43.9401932" lon="10.2759908"><ele>214.0</ele><time>2026-04-19T13:41:59.385Z</time></trkpt><trkpt lat="43.940128" lon="10.2760777"><ele>213.99999999999997</ele><time>2026-04-19T13:42:01.397Z</time></trkpt><trkpt lat="43.9400398" lon="10.2761783"><ele>213.99999999999997</ele><time>2026-04-19T13:42:03.375Z</time></trkpt><trkpt lat="43.9399562" lon="10.2762601"><ele>214.0</ele><time>2026-04-19T13:42:05.394Z</time></trkpt><trkpt lat="43.9398745" lon="10.27633"><ele>214.0</ele><time>2026-04-19T13:42:07.382Z</time></trkpt><trkpt lat="43.9397949" lon="10.2764013"><ele>212.16666666666666</ele><time>2026-04-19T13:42:09.398Z</time></trkpt><trkpt lat="43.9397231" lon="10.2764838"><ele>210.33333333333331</ele><time>2026-04-19T13:42:11.385Z</time></trkpt><trkpt lat="43.939668" lon="10.2765785"><ele>208.5</ele><time>2026-04-19T13:42:13.435Z</time></trkpt><trkpt lat="43.939647" lon="10.2766745"><ele>206.66666666666669</ele><time>2026-04-19T13:42:15.389Z</time></trkpt><trkpt lat="43.9396422" lon="10.2767729"><ele>204.83333333333334</ele><time>2026-04-19T13:42:17.448Z</time></trkpt><trkpt lat="43.9396518" lon="10.2768809"><ele>203.0</ele><time>2026-04-19T13:42:19.423Z</time></trkpt><trkpt lat="43.9396932" lon="10.2769771"><ele>203.00000000000003</ele><time>2026-04-19T13:42:21.378Z</time></trkpt><trkpt lat="43.9397473" lon="10.2770517"><ele>203.0</ele><time>2026-04-19T13:42:23.395Z</time></trkpt><trkpt lat="43.9398001" lon="10.2771126"><ele>203.0</ele><time>2026-04-19T13:42:25.36Z</time></trkpt><trkpt lat="43.9398515" lon="10.2771897"><ele>203.0</ele><time>2026-04-19T13:42:27.372Z</time></trkpt><trkpt lat="43.9399103" lon="10.2772578"><ele>203.00000000000003</ele><time>2026-04-19T13:42:29.384Z</time></trkpt><trkpt lat="43.9399658" lon="10.2773068"><ele>203.0</ele><time>2026-04-19T13:42:31.372Z</time></trkpt><trkpt lat="43.9400514" lon="10.2773949"><ele>201.83333333333334</ele><time>2026-04-19T13:42:34.374Z</time></trkpt><trkpt lat="43.9400779" lon="10.2774823"><ele>200.66666666666669</ele><time>2026-04-19T13:42:36.382Z</time></trkpt><trkpt lat="43.9399917" lon="10.2775357"><ele>199.5</ele><time>2026-04-19T13:42:39.369Z</time></trkpt><trkpt lat="43.9398668" lon="10.2775575"><ele>198.33333333333331</ele><time>2026-04-19T13:42:41.376Z</time></trkpt><trkpt lat="43.9397977" lon="10.2775587"><ele>197.16666666666666</ele><time>2026-04-19T13:42:42.378Z</time></trkpt><trkpt lat="43.9397257" lon="10.2775658"><ele>196.0</ele><time>2026-04-19T13:42:43.367Z</time></trkpt><trkpt lat="43.9396548" lon="10.2775773"><ele>196.0</ele><time>2026-04-19T13:42:44.37Z</time></trkpt><trkpt lat="43.9395895" lon="10.2775954"><ele>196.0</ele><time>2026-04-19T13:42:45.369Z</time></trkpt><trkpt lat="43.9394734" lon="10.2776323"><ele>196.0</ele><time>2026-04-19T13:42:47.376Z</time></trkpt><trkpt lat="43.9393712" lon="10.277666"><ele>196.0</ele><time>2026-04-19T13:42:49.37Z</time></trkpt><trkpt lat="43.9392599" lon="10.2777266"><ele>196.0</ele><time>2026-04-19T13:42:51.362Z</time></trkpt><trkpt lat="43.9391466" lon="10.2777758"><ele>196.28571428571428</ele><time>2026-04-19T13:42:53.373Z</time></trkpt><trkpt lat="43.9390761" lon="10.2778006"><ele>196.57142857142856</ele><time>2026-04-19T13:42:55.381Z</time></trkpt><trkpt lat="43.9390061" lon="10.2778143"><ele>196.85714285714286</ele><time>2026-04-19T13:42:57.369Z</time></trkpt><trkpt lat="43.9389342" lon="10.2777952"><ele>197.14285714285714</ele><time>2026-04-19T13:43:00.36Z</time></trkpt><trkpt lat="43.9388904" lon="10.2778652"><ele>197.42857142857142</ele><time>2026-04-19T13:43:05.398Z</time></trkpt><trkpt lat="43.9389597" lon="10.2779157"><ele>197.71428571428572</ele><time>2026-04-19T13:43:09.387Z</time></trkpt><trkpt lat="43.9390438" lon="10.2779282"><ele>198.0</ele><time>2026-04-19T13:43:11.456Z</time></trkpt><trkpt lat="43.9391215" lon="10.2779318"><ele>198.0</ele><time>2026-04-19T13:43:13.367Z</time></trkpt><trkpt lat="43.9391983" lon="10.2779239"><ele>198.0</ele><time>2026-04-19T13:43:15.419Z</time></trkpt><trkpt lat="43.9392686" lon="10.2779021"><ele>198.0</ele><time>2026-04-19T13:43:17.408Z</time></trkpt><trkpt lat="43.9393597" lon="10.277866"><ele>198.0</ele><time>2026-04-19T13:43:20.394Z</time></trkpt><trkpt lat="43.9394448" lon="10.2778748"><ele>198.0</ele><time>2026-04-19T13:43:23.409Z</time></trkpt><trkpt lat="43.9394655" lon="10.2779762"><ele>198.0</ele><time>2026-04-19T13:43:26.379Z</time></trkpt><trkpt lat="43.9394099" lon="10.2780216"><ele>198.0</ele><time>2026-04-19T13:43:28.369Z</time></trkpt><trkpt lat="43.9393382" lon="10.2780313"><ele>198.0</ele><time>2026-04-19T13:43:30.382Z</time></trkpt><trkpt lat="43.9392425" lon="10.278066"><ele>198.0</ele><time>2026-04-19T13:43:32.369Z</time></trkpt><trkpt lat="43.9391318" lon="10.2780764"><ele>198.0</ele><time>2026-04-19T13:43:34.363Z</time></trkpt><trkpt lat="43.9390748" lon="10.2781293"><ele>198.0</ele><time>2026-04-19T13:43:35.375Z</time></trkpt><trkpt lat="43.9389554" lon="10.2781674"><ele>193.2</ele><time>2026-04-19T13:43:37.395Z</time></trkpt><trkpt lat="43.9388976" lon="10.2782034"><ele>188.4</ele><time>2026-04-19T13:43:38.371Z</time></trkpt><trkpt lat="43.9387869" lon="10.2782422"><ele>183.6</ele><time>2026-04-19T13:43:40.376Z</time></trkpt><trkpt lat="43.938675" lon="10.2782903"><ele>178.79999999999998</ele><time>2026-04-19T13:43:42.371Z</time></trkpt><trkpt lat="43.9385906" lon="10.2783759"><ele>174.0</ele><time>2026-04-19T13:43:44.364Z</time></trkpt><trkpt lat="43.9385262" lon="10.2784944"><ele>174.0</ele><time>2026-04-19T13:43:46.374Z</time></trkpt><trkpt lat="43.9384728" lon="10.2785834"><ele>174.0</ele><time>2026-04-19T13:43:47.377Z</time></trkpt><trkpt lat="43.9383944" lon="10.2786759"><ele>174.0</ele><time>2026-04-19T13:43:49.374Z</time></trkpt><trkpt lat="43.9383074" lon="10.2787657"><ele>174.0</ele><time>2026-04-19T13:43:51.369Z</time></trkpt><trkpt lat="43.9382212" lon="10.2788006"><ele>174.0</ele><time>2026-04-19T13:43:53.376Z</time></trkpt><trkpt lat="43.9381555" lon="10.2787507"><ele>173.83333333333334</ele><time>2026-04-19T13:43:55.369Z</time></trkpt><trkpt lat="43.9381067" lon="10.2786131"><ele>173.66666666666666</ele><time>2026-04-19T13:43:57.374Z</time></trkpt><trkpt lat="43.9380853" lon="10.2785192"><ele>173.5</ele><time>2026-04-19T13:43:58.373Z</time></trkpt><trkpt lat="43.9380532" lon="10.2784206"><ele>173.33333333333331</ele><time>2026-04-19T13:43:59.374Z</time></trkpt><trkpt lat="43.9380165" lon="10.2783249"><ele>173.16666666666666</ele><time>2026-04-19T13:44:00.39Z</time></trkpt><trkpt lat="43.9379634" lon="10.278221"><ele>173.0</ele><time>2026-04-19T13:44:01.375Z</time></trkpt><trkpt lat="43.9379172" lon="10.2781075"><ele>175.60000000000002</ele><time>2026-04-19T13:44:02.369Z</time></trkpt><trkpt lat="43.9378773" lon="10.2779966"><ele>178.20000000000002</ele><time>2026-04-19T13:44:03.373Z</time></trkpt><trkpt lat="43.937844" lon="10.2779066"><ele>180.8</ele><time>2026-04-19T13:44:04.371Z</time></trkpt><trkpt lat="43.9377803" lon="10.2777478"><ele>183.4</ele><time>2026-04-19T13:44:06.368Z</time></trkpt><trkpt lat="43.9377463" lon="10.2775736"><ele>186.0</ele><time>2026-04-19T13:44:08.363Z</time></trkpt><trkpt lat="43.93775" lon="10.2774663"><ele>186.0</ele><time>2026-04-19T13:44:09.363Z</time></trkpt><trkpt lat="43.9377513" lon="10.2773562"><ele>186.0</ele><time>2026-04-19T13:44:10.386Z</time></trkpt><trkpt lat="43.9377365" lon="10.2772541"><ele>186.0</ele><time>2026-04-19T13:44:11.379Z</time></trkpt><trkpt lat="43.9377151" lon="10.2771689"><ele>186.0</ele><time>2026-04-19T13:44:12.37Z</time></trkpt><trkpt lat="43.9376681" lon="10.2770424"><ele>186.0</ele><time>2026-04-19T13:44:14.375Z</time></trkpt><trkpt lat="43.9375954" lon="10.2769339"><ele>186.0</ele><time>2026-04-19T13:44:16.39Z</time></trkpt><trkpt lat="43.9375366" lon="10.2768994"><ele>183.16666666666666</ele><time>2026-04-19T13:44:17.384Z</time></trkpt><trkpt lat="43.9374697" lon="10.2768577"><ele>180.33333333333334</ele><time>2026-04-19T13:44:18.368Z</time></trkpt><trkpt lat="43.9373992" lon="10.2768157"><ele>177.5</ele><time>2026-04-19T13:44:19.371Z</time></trkpt><trkpt lat="43.9373369" lon="10.276785"><ele>174.66666666666669</ele><time>2026-04-19T13:44:20.38Z</time></trkpt><trkpt lat="43.9372537" lon="10.2767373"><ele>171.83333333333334</ele><time>2026-04-19T13:44:22.378Z</time></trkpt><trkpt lat="43.9371758" lon="10.2767459"><ele>169.0</ele><time>2026-04-19T13:44:25.375Z</time></trkpt><trkpt lat="43.9371753" lon="10.2768493"><ele>169.0</ele><time>2026-04-19T13:44:28.365Z</time></trkpt><trkpt lat="43.9372363" lon="10.2769195"><ele>169.0</ele><time>2026-04-19T13:44:30.415Z</time></trkpt><trkpt lat="43.9373105" lon="10.2770024"><ele>169.0</ele><time>2026-04-19T13:44:32.38Z</time></trkpt><trkpt lat="43.9373795" lon="10.2770626"><ele>169.0</ele><time>2026-04-19T13:44:34.387Z</time></trkpt><trkpt lat="43.9373966" lon="10.2771605"><ele>169.0</ele><time>2026-04-19T13:44:39.455Z</time></trkpt><trkpt lat="43.9373063" lon="10.2771429"><ele>169.0</ele><time>2026-04-19T13:44:42.376Z</time></trkpt><trkpt lat="43.9371962" lon="10.2770783"><ele>169.0</ele><time>2026-04-19T13:44:44.374Z</time></trkpt><trkpt lat="43.9371367" lon="10.27704"><ele>169.0</ele><time>2026-04-19T13:44:45.361Z</time></trkpt><trkpt lat="43.9370711" lon="10.2770274"><ele>169.0</ele><time>2026-04-19T13:44:46.368Z</time></trkpt><trkpt lat="43.9370073" lon="10.2770175"><ele>169.0</ele><time>2026-04-19T13:44:47.372Z</time></trkpt><trkpt lat="43.936892" lon="10.2769931"><ele>169.0</ele><time>2026-04-19T13:44:49.401Z</time></trkpt><trkpt lat="43.9367873" lon="10.276958"><ele>169.0</ele><time>2026-04-19T13:44:51.421Z</time></trkpt><trkpt lat="43.9366828" lon="10.2768953"><ele>165.14285714285714</ele><time>2026-04-19T13:44:53.391Z</time></trkpt><trkpt lat="43.9366244" lon="10.276844"><ele>161.28571428571428</ele><time>2026-04-19T13:44:54.435Z</time></trkpt><trkpt lat="43.9365684" lon="10.2767779"><ele>157.42857142857142</ele><time>2026-04-19T13:44:55.382Z</time></trkpt><trkpt lat="43.9365101" lon="10.2767098"><ele>153.57142857142856</ele><time>2026-04-19T13:44:56.407Z</time></trkpt><trkpt lat="43.936454" lon="10.2766454"><ele>149.7142857142857</ele><time>2026-04-19T13:44:57.403Z</time></trkpt><trkpt lat="43.9364018" lon="10.2765847"><ele>145.85714285714286</ele><time>2026-04-19T13:44:58.377Z</time></trkpt><trkpt lat="43.936354" lon="10.2765269"><ele>142.0</ele><time>2026-04-19T13:44:59.383Z</time></trkpt><trkpt lat="43.9363038" lon="10.2764731"><ele>143.5</ele><time>2026-04-19T13:45:00.415Z</time></trkpt><trkpt lat="43.9362515" lon="10.2764173"><ele>145.0</ele><time>2026-04-19T13:45:01.378Z</time></trkpt><trkpt lat="43.9361951" lon="10.2763586"><ele>146.5</ele><time>2026-04-19T13:45:02.377Z</time></trkpt><trkpt lat="43.9361399" lon="10.2762991"><ele>148.0</ele><time>2026-04-19T13:45:03.392Z</time></trkpt><trkpt lat="43.9360893" lon="10.2762446"><ele>149.5</ele><time>2026-04-19T13:45:04.362Z</time></trkpt><trkpt lat="43.9360032" lon="10.2761397"><ele>151.0</ele><time>2026-04-19T13:45:06.372Z</time></trkpt><trkpt lat="43.9359404" lon="10.2760579"><ele>151.0</ele><time>2026-04-19T13:45:08.368Z</time></trkpt><trkpt lat="43.9358914" lon="10.2759803"><ele>151.0</ele><time>2026-04-19T13:45:10.363Z</time></trkpt><trkpt lat="43.935865" lon="10.2758953"><ele>151.0</ele><time>2026-04-19T13:45:13.372Z</time></trkpt><trkpt lat="43.9358679" lon="10.275778"><ele>151.0</ele><time>2026-04-19T13:45:17.388Z</time></trkpt><trkpt lat="43.935918" lon="10.2756809"><ele>151.0</ele><time>2026-04-19T13:45:19.391Z</time></trkpt><trkpt lat="43.9359672" lon="10.27562"><ele>151.0</ele><time>2026-04-19T13:45:20.39Z</time></trkpt><trkpt lat="43.9360262" lon="10.2755442"><ele>148.83333333333334</ele><time>2026-04-19T13:45:21.391Z</time></trkpt><trkpt lat="43.936087" lon="10.2754572"><ele>146.66666666666669</ele><time>2026-04-19T13:45:22.393Z</time></trkpt><trkpt lat="43.9361363" lon="10.2753583"><ele>144.5</ele><time>2026-04-19T13:45:23.394Z</time></trkpt><trkpt lat="43.9361911" lon="10.2752674"><ele>142.33333333333334</ele><time>2026-04-19T13:45:24.386Z</time></trkpt><trkpt lat="43.936252" lon="10.2751862"><ele>140.16666666666666</ele><time>2026-04-19T13:45:25.383Z</time></trkpt><trkpt lat="43.9363134" lon="10.2751132"><ele>138.0</ele><time>2026-04-19T13:45:26.412Z</time></trkpt><trkpt lat="43.9363686" lon="10.2750504"><ele>138.0</ele><time>2026-04-19T13:45:27.381Z</time></trkpt><trkpt lat="43.9364203" lon="10.2749961"><ele>138.0</ele><time>2026-04-19T13:45:28.397Z</time></trkpt><trkpt lat="43.9364739" lon="10.2749215"><ele>138.0</ele><time>2026-04-19T13:45:29.393Z</time></trkpt><trkpt lat="43.936529" lon="10.2748278"><ele>138.0</ele><time>2026-04-19T13:45:30.394Z</time></trkpt><trkpt lat="43.9365808" lon="10.2747374"><ele>138.0</ele><time>2026-04-19T13:45:31.389Z</time></trkpt><trkpt lat="43.9366254" lon="10.2746451"><ele>138.0</ele><time>2026-04-19T13:45:32.424Z</time></trkpt><trkpt lat="43.936669" lon="10.2745577"><ele>140.0</ele><time>2026-04-19T13:45:33.387Z</time></trkpt><trkpt lat="43.9367285" lon="10.274474"><ele>142.0</ele><time>2026-04-19T13:45:34.398Z</time></trkpt><trkpt lat="43.9367902" lon="10.2743867"><ele>144.0</ele><time>2026-04-19T13:45:35.372Z</time></trkpt><trkpt lat="43.93685" lon="10.2742931"><ele>146.0</ele><time>2026-04-19T13:45:36.392Z</time></trkpt><trkpt lat="43.9369048" lon="10.2741993"><ele>148.0</ele><time>2026-04-19T13:45:37.386Z</time></trkpt><trkpt lat="43.9369423" lon="10.2741046"><ele>150.0</ele><time>2026-04-19T13:45:38.406Z</time></trkpt><trkpt lat="43.9369778" lon="10.2740214"><ele>150.0</ele><time>2026-04-19T13:45:39.401Z</time></trkpt><trkpt lat="43.9370154" lon="10.2739495"><ele>150.0</ele><time>2026-04-19T13:45:40.374Z</time></trkpt><trkpt lat="43.9370554" lon="10.2738785"><ele>150.0</ele><time>2026-04-19T13:45:41.382Z</time></trkpt><trkpt lat="43.9371121" lon="10.2738181"><ele>150.0</ele><time>2026-04-19T13:45:42.397Z</time></trkpt><trkpt lat="43.9371875" lon="10.2737702"><ele>150.0</ele><time>2026-04-19T13:45:43.389Z</time></trkpt><trkpt lat="43.9372601" lon="10.2737132"><ele>150.0</ele><time>2026-04-19T13:45:44.414Z</time></trkpt><trkpt lat="43.937356" lon="10.2736297"><ele>149.83333333333334</ele><time>2026-04-19T13:45:46.381Z</time></trkpt><trkpt lat="43.937432" lon="10.2735799"><ele>149.66666666666666</ele><time>2026-04-19T13:45:48.367Z</time></trkpt><trkpt lat="43.937504" lon="10.273549"><ele>149.5</ele><time>2026-04-19T13:45:50.377Z</time></trkpt><trkpt lat="43.9375207" lon="10.2734474"><ele>149.33333333333331</ele><time>2026-04-19T13:45:53.369Z</time></trkpt><trkpt lat="43.9374501" lon="10.2733784"><ele>149.16666666666666</ele><time>2026-04-19T13:45:55.377Z</time></trkpt><trkpt lat="43.9373448" lon="10.2733465"><ele>149.0</ele><time>2026-04-19T13:45:57.389Z</time></trkpt><trkpt lat="43.9372812" lon="10.2733357"><ele>149.0</ele><time>2026-04-19T13:45:58.387Z</time></trkpt><trkpt lat="43.9372122" lon="10.2733294"><ele>149.0</ele><time>2026-04-19T13:45:59.374Z</time></trkpt><trkpt lat="43.9371329" lon="10.2733425"><ele>149.0</ele><time>2026-04-19T13:46:00.367Z</time></trkpt><trkpt lat="43.9370572" lon="10.2733663"><ele>149.0</ele><time>2026-04-19T13:46:01.367Z</time></trkpt><trkpt lat="43.9369864" lon="10.2733824"><ele>149.0</ele><time>2026-04-19T13:46:02.374Z</time></trkpt><trkpt lat="43.9369193" lon="10.2734052"><ele>149.0</ele><time>2026-04-19T13:46:03.374Z</time></trkpt><trkpt lat="43.9368369" lon="10.273412"><ele>149.0</ele><time>2026-04-19T13:46:05.38Z</time></trkpt><trkpt lat="43.9367723" lon="10.2733867"><ele>149.0</ele><time>2026-04-19T13:46:07.383Z</time></trkpt><trkpt lat="43.93669" lon="10.2733232"><ele>149.0</ele><time>2026-04-19T13:46:09.381Z</time></trkpt><trkpt lat="43.9366218" lon="10.2732768"><ele>149.0</ele><time>2026-04-19T13:46:11.377Z</time></trkpt><trkpt lat="43.9365573" lon="10.2732581"><ele>149.0</ele><time>2026-04-19T13:46:13.374Z</time></trkpt><trkpt lat="43.9364423" lon="10.2732529"><ele>149.0</ele><time>2026-04-19T13:46:17.368Z</time></trkpt><trkpt lat="43.936398" lon="10.2731849"><ele>148.14285714285714</ele><time>2026-04-19T13:46:20.402Z</time></trkpt><trkpt lat="43.9364632" lon="10.273094"><ele>147.28571428571428</ele><time>2026-04-19T13:46:22.398Z</time></trkpt><trkpt lat="43.9364936" lon="10.2730148"><ele>146.42857142857142</ele><time>2026-04-19T13:46:23.387Z</time></trkpt><trkpt lat="43.9365276" lon="10.2729359"><ele>145.57142857142856</ele><time>2026-04-19T13:46:24.411Z</time></trkpt><trkpt lat="43.9365608" lon="10.2728459"><ele>144.71428571428572</ele><time>2026-04-19T13:46:25.388Z</time></trkpt><trkpt lat="43.9365857" lon="10.2727562"><ele>143.85714285714283</ele><time>2026-04-19T13:46:26.375Z</time></trkpt><trkpt lat="43.9365888" lon="10.2726469"><ele>143.0</ele><time>2026-04-19T13:46:27.395Z</time></trkpt><trkpt lat="43.9365801" lon="10.2725417"><ele>142.99999999999997</ele><time>2026-04-19T13:46:28.39Z</time></trkpt><trkpt lat="43.9365618" lon="10.2724369"><ele>143.0</ele><time>2026-04-19T13:46:29.418Z</time></trkpt><trkpt lat="43.9365293" lon="10.2723329"><ele>143.0</ele><time>2026-04-19T13:46:30.381Z</time></trkpt><trkpt lat="43.936497" lon="10.2722396"><ele>143.0</ele><time>2026-04-19T13:46:31.368Z</time></trkpt><trkpt lat="43.9364673" lon="10.2721524"><ele>143.0</ele><time>2026-04-19T13:46:32.372Z</time></trkpt><trkpt lat="43.9364362" lon="10.2720696"><ele>142.99999999999997</ele><time>2026-04-19T13:46:33.385Z</time></trkpt><trkpt lat="43.9363962" lon="10.2719922"><ele>143.0</ele><time>2026-04-19T13:46:34.398Z</time></trkpt><trkpt lat="43.9363412" lon="10.2719239"><ele>143.85714285714283</ele><time>2026-04-19T13:46:35.377Z</time></trkpt><trkpt lat="43.9362871" lon="10.2718598"><ele>144.71428571428572</ele><time>2026-04-19T13:46:36.38Z</time></trkpt><trkpt lat="43.9362326" lon="10.2718064"><ele>145.57142857142856</ele><time>2026-04-19T13:46:37.376Z</time></trkpt><trkpt lat="43.9361762" lon="10.2717543"><ele>146.42857142857142</ele><time>2026-04-19T13:46:38.385Z</time></trkpt><trkpt lat="43.9361135" lon="10.2716911"><ele>147.28571428571428</ele><time>2026-04-19T13:46:39.385Z</time></trkpt><trkpt lat="43.9360461" lon="10.2716267"><ele>148.14285714285714</ele><time>2026-04-19T13:46:40.37Z</time></trkpt><trkpt lat="43.9359782" lon="10.2715636"><ele>149.0</ele><time>2026-04-19T13:46:41.396Z</time></trkpt><trkpt lat="43.9359126" lon="10.2715137"><ele>146.83333333333331</ele><time>2026-04-19T13:46:42.384Z</time></trkpt><trkpt lat="43.9358424" lon="10.2714819"><ele>144.66666666666666</ele><time>2026-04-19T13:46:43.376Z</time></trkpt><trkpt lat="43.935775" lon="10.2714592"><ele>142.5</ele><time>2026-04-19T13:46:44.399Z</time></trkpt><trkpt lat="43.9357085" lon="10.2714334"><ele>140.33333333333334</ele><time>2026-04-19T13:46:45.383Z</time></trkpt><trkpt lat="43.9356463" lon="10.2714085"><ele>138.16666666666669</ele><time>2026-04-19T13:46:46.38Z</time></trkpt><trkpt lat="43.9355408" lon="10.2713573"><ele>136.0</ele><time>2026-04-19T13:46:48.377Z</time></trkpt><trkpt lat="43.9354631" lon="10.2713068"><ele>136.0</ele><time>2026-04-19T13:46:50.378Z</time></trkpt><trkpt lat="43.935398" lon="10.2712017"><ele>136.0</ele><time>2026-04-19T13:46:52.392Z</time></trkpt><trkpt lat="43.9353582" lon="10.27106"><ele>136.0</ele><time>2026-04-19T13:46:54.398Z</time></trkpt><trkpt lat="43.9353515" lon="10.2708918"><ele>136.0</ele><time>2026-04-19T13:46:56.387Z</time></trkpt><trkpt lat="43.935381" lon="10.2707366"><ele>136.0</ele><time>2026-04-19T13:46:58.372Z</time></trkpt><trkpt lat="43.9354818" lon="10.2706405"><ele>136.0</ele><time>2026-04-19T13:47:00.374Z</time></trkpt><trkpt lat="43.9355591" lon="10.2706214"><ele>136.0</ele><time>2026-04-19T13:47:01.402Z</time></trkpt><trkpt lat="43.9356465" lon="10.2706093"><ele>136.0</ele><time>2026-04-19T13:47:02.37Z</time></trkpt><trkpt lat="43.9357277" lon="10.2705998"><ele>136.0</ele><time>2026-04-19T13:47:03.38Z</time></trkpt><trkpt lat="43.9357938" lon="10.2705742"><ele>136.0</ele><time>2026-04-19T13:47:04.366Z</time></trkpt><trkpt lat="43.9359015" lon="10.2705203"><ele>136.0</ele><time>2026-04-19T13:47:06.375Z</time></trkpt><trkpt lat="43.9360075" lon="10.2704784"><ele>136.5</ele><time>2026-04-19T13:47:08.385Z</time></trkpt><trkpt lat="43.9360827" lon="10.2705051"><ele>137.0</ele><time>2026-04-19T13:47:09.371Z</time></trkpt><trkpt lat="43.9361651" lon="10.2705466"><ele>137.5</ele><time>2026-04-19T13:47:10.373Z</time></trkpt><trkpt lat="43.9362386" lon="10.2705921"><ele>138.0</ele><time>2026-04-19T13:47:11.376Z</time></trkpt><trkpt lat="43.9363082" lon="10.2706364"><ele>138.5</ele><time>2026-04-19T13:47:12.374Z</time></trkpt><trkpt lat="43.9363939" lon="10.2706796"><ele>139.0</ele><time>2026-04-19T13:47:13.363Z</time></trkpt><trkpt lat="43.9364759" lon="10.2707206"><ele>139.0</ele><time>2026-04-19T13:47:14.373Z</time></trkpt><trkpt lat="43.9365573" lon="10.270753"><ele>139.0</ele><time>2026-04-19T13:47:15.377Z</time></trkpt><trkpt lat="43.9366302" lon="10.2707757"><ele>139.0</ele><time>2026-04-19T13:47:16.394Z</time></trkpt><trkpt lat="43.9367494" lon="10.2707897"><ele>139.0</ele><time>2026-04-19T13:47:18.377Z</time></trkpt><trkpt lat="43.936875" lon="10.2707712"><ele>139.0</ele><time>2026-04-19T13:47:20.371Z</time></trkpt><trkpt lat="43.9369395" lon="10.2707458"><ele>140.8</ele><time>2026-04-19T13:47:21.361Z</time></trkpt><trkpt lat="43.9370001" lon="10.2707184"><ele>142.60000000000002</ele><time>2026-04-19T13:47:22.407Z</time></trkpt><trkpt lat="43.937105" lon="10.2706426"><ele>144.4</ele><time>2026-04-19T13:47:24.39Z</time></trkpt><trkpt lat="43.9371932" lon="10.2705415"><ele>146.20000000000002</ele><time>2026-04-19T13:47:26.364Z</time></trkpt><trkpt lat="43.9372691" lon="10.2704232"><ele>148.0</ele><time>2026-04-19T13:47:28.397Z</time></trkpt><trkpt lat="43.9373306" lon="10.27031"><ele>144.5</ele><time>2026-04-19T13:47:30.373Z</time></trkpt><trkpt lat="43.9373845" lon="10.2702026"><ele>141.0</ele><time>2026-04-19T13:47:32.377Z</time></trkpt><trkpt lat="43.9374189" lon="10.2701221"><ele>137.5</ele><time>2026-04-19T13:47:34.376Z</time></trkpt><trkpt lat="43.9374489" lon="10.2700282"><ele>134.0</ele><time>2026-04-19T13:47:37.362Z</time></trkpt><trkpt lat="43.9374014" lon="10.2699633"><ele>130.5</ele><time>2026-04-19T13:47:40.365Z</time></trkpt><trkpt lat="43.9373397" lon="10.2699818"><ele>127.0</ele><time>2026-04-19T13:47:41.39Z</time></trkpt><trkpt lat="43.9372579" lon="10.2700234"><ele>127.00000000000001</ele><time>2026-04-19T13:47:42.395Z</time></trkpt><trkpt lat="43.9371724" lon="10.2700623"><ele>127.0</ele><time>2026-04-19T13:47:43.357Z</time></trkpt><trkpt lat="43.9370918" lon="10.2700968"><ele>127.0</ele><time>2026-04-19T13:47:44.368Z</time></trkpt><trkpt lat="43.9370149" lon="10.2701269"><ele>127.0</ele><time>2026-04-19T13:47:45.383Z</time></trkpt><trkpt lat="43.936949" lon="10.2701548"><ele>127.00000000000001</ele><time>2026-04-19T13:47:46.382Z</time></trkpt><trkpt lat="43.9368834" lon="10.2701815"><ele>127.0</ele><time>2026-04-19T13:47:47.373Z</time></trkpt><trkpt lat="43.9368159" lon="10.2701947"><ele>127.00000000000001</ele><time>2026-04-19T13:47:48.38Z</time></trkpt><trkpt lat="43.9366939" lon="10.2702109"><ele>127.0</ele><time>2026-04-19T13:47:50.373Z</time></trkpt><trkpt lat="43.936608" lon="10.2702157"><ele>127.0</ele><time>2026-04-19T13:47:52.383Z</time></trkpt><trkpt lat="43.9365475" lon="10.2701913"><ele>127.0</ele><time>2026-04-19T13:47:54.359Z</time></trkpt><trkpt lat="43.9365427" lon="10.2701035"><ele>127.00000000000001</ele><time>2026-04-19T13:47:56.391Z</time></trkpt><trkpt lat="43.9366152" lon="10.2700309"><ele>127.0</ele><time>2026-04-19T13:47:58.375Z</time></trkpt><trkpt lat="43.9367361" lon="10.2699454"><ele>127.00000000000001</ele><time>2026-04-19T13:48:00.369Z</time></trkpt><trkpt lat="43.9367918" lon="10.2698896"><ele>127.0</ele><time>2026-04-19T13:48:01.367Z</time></trkpt><trkpt lat="43.9368769" lon="10.2697748"><ele>127.0</ele><time>2026-04-19T13:48:03.374Z</time></trkpt><trkpt lat="43.9369457" lon="10.2696881"><ele>127.0</ele><time>2026-04-19T13:48:05.355Z</time></trkpt><trkpt lat="43.9369944" lon="10.2696033"><ele>127.00000000000001</ele><time>2026-04-19T13:48:07.426Z</time></trkpt><trkpt lat="43.9370155" lon="10.2694985"><ele>127.0</ele><time>2026-04-19T13:48:10.375Z</time></trkpt><trkpt lat="43.9369554" lon="10.2694638"><ele>123.6</ele><time>2026-04-19T13:48:12.374Z</time></trkpt><trkpt lat="43.9368686" lon="10.2695122"><ele>120.19999999999999</ele><time>2026-04-19T13:48:14.379Z</time></trkpt><trkpt lat="43.9367675" lon="10.2695939"><ele>116.8</ele><time>2026-04-19T13:48:16.392Z</time></trkpt><trkpt lat="43.9367139" lon="10.2696405"><ele>113.4</ele><time>2026-04-19T13:48:17.436Z</time></trkpt><trkpt lat="43.9366106" lon="10.2697152"><ele>110.0</ele><time>2026-04-19T13:48:19.375Z</time></trkpt><trkpt lat="43.9365156" lon="10.2697609"><ele>110.66666666666666</ele><time>2026-04-19T13:48:21.366Z</time></trkpt><trkpt lat="43.9364531" lon="10.2697752"><ele>111.33333333333333</ele><time>2026-04-19T13:48:23.368Z</time></trkpt><trkpt lat="43.9363899" lon="10.2697676"><ele>112.0</ele><time>2026-04-19T13:48:25.38Z</time></trkpt><trkpt lat="43.9363472" lon="10.2696967"><ele>112.66666666666666</ele><time>2026-04-19T13:48:28.366Z</time></trkpt><trkpt lat="43.9364148" lon="10.269596"><ele>113.33333333333333</ele><time>2026-04-19T13:48:30.417Z</time></trkpt><trkpt lat="43.9364577" lon="10.2695233"><ele>114.0</ele><time>2026-04-19T13:48:31.36Z</time></trkpt><trkpt lat="43.9364888" lon="10.2693688"><ele>110.0</ele><time>2026-04-19T13:48:33.381Z</time></trkpt><trkpt lat="43.9364677" lon="10.2692198"><ele>106.0</ele><time>2026-04-19T13:48:35.38Z</time></trkpt><trkpt lat="43.9364106" lon="10.2690822"><ele>102.0</ele><time>2026-04-19T13:48:37.363Z</time></trkpt><trkpt lat="43.93636" lon="10.2689615"><ele>98.0</ele><time>2026-04-19T13:48:39.387Z</time></trkpt><trkpt lat="43.9363101" lon="10.2688192"><ele>94.0</ele><time>2026-04-19T13:48:41.369Z</time></trkpt><trkpt lat="43.9362882" lon="10.2687318"><ele>92.5</ele><time>2026-04-19T13:48:42.358Z</time></trkpt><trkpt lat="43.9362827" lon="10.2686368"><ele>91.0</ele><time>2026-04-19T13:48:43.37Z</time></trkpt><trkpt lat="43.9362775" lon="10.2685372"><ele>89.5</ele><time>2026-04-19T13:48:44.369Z</time></trkpt><trkpt lat="43.9362758" lon="10.2684479"><ele>88.0</ele><time>2026-04-19T13:48:45.372Z</time></trkpt><trkpt lat="43.9362848" lon="10.2682977"><ele>86.5</ele><time>2026-04-19T13:48:47.367Z</time></trkpt><trkpt lat="43.9363347" lon="10.2681645"><ele>85.0</ele><time>2026-04-19T13:48:49.371Z</time></trkpt><trkpt lat="43.9363965" lon="10.268041"><ele>84.5</ele><time>2026-04-19T13:48:51.38Z</time></trkpt><trkpt lat="43.9364257" lon="10.2678774"><ele>84.0</ele><time>2026-04-19T13:48:53.372Z</time></trkpt><trkpt lat="43.9364387" lon="10.2677889"><ele>83.5</ele><time>2026-04-19T13:48:54.36Z</time></trkpt><trkpt lat="43.9364547" lon="10.2676993"><ele>83.0</ele><time>2026-04-19T13:48:55.366Z</time></trkpt><trkpt lat="43.9364692" lon="10.2676106"><ele>82.5</ele><time>2026-04-19T13:48:56.37Z</time></trkpt><trkpt lat="43.9364929" lon="10.2674459"><ele>82.0</ele><time>2026-04-19T13:48:58.37Z</time></trkpt><trkpt lat="43.9365173" lon="10.2673004"><ele>81.0</ele><time>2026-04-19T13:49:00.361Z</time></trkpt><trkpt lat="43.9365399" lon="10.267187"><ele>80.0</ele><time>2026-04-19T13:49:02.38Z</time></trkpt><trkpt lat="43.9365372" lon="10.2670826"><ele>79.0</ele><time>2026-04-19T13:49:04.377Z</time></trkpt><trkpt lat="43.9365003" lon="10.2669694"><ele>78.0</ele><time>2026-04-19T13:49:06.366Z</time></trkpt><trkpt lat="43.9364485" lon="10.2668568"><ele>77.0</ele><time>2026-04-19T13:49:08.373Z</time></trkpt><trkpt lat="43.9364077" lon="10.2667725"><ele>76.0</ele><time>2026-04-19T13:49:10.392Z</time></trkpt><trkpt lat="43.936355" lon="10.2666723"><ele>76.0</ele><time>2026-04-19T13:49:13.363Z</time></trkpt><trkpt lat="43.9363306" lon="10.2665852"><ele>76.0</ele><time>2026-04-19T13:49:15.369Z</time></trkpt><trkpt lat="43.9362855" lon="10.2664419"><ele>76.0</ele><time>2026-04-19T13:49:17.369Z</time></trkpt><trkpt lat="43.9362633" lon="10.2663456"><ele>76.0</ele><time>2026-04-19T13:49:18.369Z</time></trkpt><trkpt lat="43.9362413" lon="10.2662423"><ele>76.0</ele><time>2026-04-19T13:49:19.367Z</time></trkpt><trkpt lat="43.9362265" lon="10.2661307"><ele>76.0</ele><time>2026-04-19T13:49:20.394Z</time></trkpt><trkpt lat="43.9362159" lon="10.2660115"><ele>78.0</ele><time>2026-04-19T13:49:21.42Z</time></trkpt><trkpt lat="43.9362072" lon="10.2658898"><ele>80.0</ele><time>2026-04-19T13:49:22.37Z</time></trkpt><trkpt lat="43.9361975" lon="10.2657728"><ele>82.0</ele><time>2026-04-19T13:49:23.376Z</time></trkpt><trkpt lat="43.9361849" lon="10.2656672"><ele>84.0</ele><time>2026-04-19T13:49:24.37Z</time></trkpt><trkpt lat="43.9361755" lon="10.2655721"><ele>86.0</ele><time>2026-04-19T13:49:25.374Z</time></trkpt><trkpt lat="43.9361625" lon="10.2654829"><ele>88.0</ele><time>2026-04-19T13:49:26.377Z</time></trkpt><trkpt lat="43.9361259" lon="10.2653147"><ele>88.0</ele><time>2026-04-19T13:49:28.373Z</time></trkpt><trkpt lat="43.9360892" lon="10.2652432"><ele>88.0</ele><time>2026-04-19T13:49:29.375Z</time></trkpt><trkpt lat="43.9359884" lon="10.2651402"><ele>88.0</ele><time>2026-04-19T13:49:31.394Z</time></trkpt><trkpt lat="43.9359284" lon="10.2650948"><ele>88.0</ele><time>2026-04-19T13:49:32.371Z</time></trkpt><trkpt lat="43.9358602" lon="10.2650423"><ele>88.0</ele><time>2026-04-19T13:49:33.381Z</time></trkpt><trkpt lat="43.9357938" lon="10.264985"><ele>88.0</ele><time>2026-04-19T13:49:34.452Z</time></trkpt><trkpt lat="43.9357266" lon="10.2649102"><ele>84.0</ele><time>2026-04-19T13:49:35.383Z</time></trkpt><trkpt lat="43.9356569" lon="10.2648332"><ele>80.0</ele><time>2026-04-19T13:49:36.381Z</time></trkpt><trkpt lat="43.935586" lon="10.264762"><ele>76.0</ele><time>2026-04-19T13:49:37.426Z</time></trkpt><trkpt lat="43.9355224" lon="10.2647"><ele>72.0</ele><time>2026-04-19T13:49:38.433Z</time></trkpt><trkpt lat="43.9354627" lon="10.264642"><ele>68.0</ele><time>2026-04-19T13:49:39.413Z</time></trkpt><trkpt lat="43.9353938" lon="10.2645885"><ele>64.0</ele><time>2026-04-19T13:49:40.388Z</time></trkpt><trkpt lat="43.9353307" lon="10.2645571"><ele>63.99999999999999</ele><time>2026-04-19T13:49:41.393Z</time></trkpt><trkpt lat="43.9352612" lon="10.2645389"><ele>64.0</ele><time>2026-04-19T13:49:42.369Z</time></trkpt><trkpt lat="43.935185" lon="10.2645259"><ele>64.0</ele><time>2026-04-19T13:49:43.428Z</time></trkpt><trkpt lat="43.9351213" lon="10.2645094"><ele>64.0</ele><time>2026-04-19T13:49:44.373Z</time></trkpt><trkpt lat="43.9350572" lon="10.2644887"><ele>63.99999999999999</ele><time>2026-04-19T13:49:45.382Z</time></trkpt><trkpt lat="43.9349611" lon="10.26443"><ele>64.0</ele><time>2026-04-19T13:49:47.402Z</time></trkpt><trkpt lat="43.9349209" lon="10.2643565"><ele>64.0</ele><time>2026-04-19T13:49:49.393Z</time></trkpt><trkpt lat="43.9348571" lon="10.2643712"><ele>63.99999999999999</ele><time>2026-04-19T13:49:55.389Z</time></trkpt><trkpt lat="43.9348939" lon="10.2644869"><ele>64.0</ele><time>2026-04-19T13:49:58.415Z</time></trkpt><trkpt lat="43.93495" lon="10.264558"><ele>64.0</ele><time>2026-04-19T13:50:00.385Z</time></trkpt><trkpt lat="43.9350003" lon="10.2646295"><ele>63.99999999999999</ele><time>2026-04-19T13:50:02.376Z</time></trkpt><trkpt lat="43.9350667" lon="10.2646881"><ele>64.0</ele><time>2026-04-19T13:50:05.375Z</time></trkpt><trkpt lat="43.935121" lon="10.2647333"><ele>64.0</ele><time>2026-04-19T13:50:08.392Z</time></trkpt><trkpt lat="43.9350836" lon="10.2648305"><ele>59.6</ele><time>2026-04-19T13:50:11.353Z</time></trkpt><trkpt lat="43.9350137" lon="10.2648135"><ele>55.2</ele><time>2026-04-19T13:50:13.384Z</time></trkpt><trkpt lat="43.9349077" lon="10.2647668"><ele>50.800000000000004</ele><time>2026-04-19T13:50:15.367Z</time></trkpt><trkpt lat="43.934847" lon="10.2647304"><ele>46.400000000000006</ele><time>2026-04-19T13:50:16.36Z</time></trkpt><trkpt lat="43.9347402" lon="10.2646685"><ele>42.0</ele><time>2026-04-19T13:50:18.361Z</time></trkpt><trkpt lat="43.9346399" lon="10.2645985"><ele>42.0</ele><time>2026-04-19T13:50:20.354Z</time></trkpt><trkpt lat="43.9345451" lon="10.264481"><ele>42.0</ele><time>2026-04-19T13:50:22.386Z</time></trkpt><trkpt lat="43.9344982" lon="10.2643767"><ele>42.0</ele><time>2026-04-19T13:50:23.416Z</time></trkpt><trkpt lat="43.9344515" lon="10.2642606"><ele>42.0</ele><time>2026-04-19T13:50:24.382Z</time></trkpt><trkpt lat="43.9344057" lon="10.2641301"><ele>42.0</ele><time>2026-04-19T13:50:25.405Z</time></trkpt><trkpt lat="43.9343651" lon="10.2640086"><ele>42.0</ele><time>2026-04-19T13:50:26.398Z</time></trkpt><trkpt lat="43.9343251" lon="10.2638988"><ele>41.0</ele><time>2026-04-19T13:50:27.4Z</time></trkpt><trkpt lat="43.9342919" lon="10.2638226"><ele>41.0</ele><time>2026-04-19T13:50:28.372Z</time></trkpt><trkpt lat="43.9342415" lon="10.2637441"><ele>41.0</ele><time>2026-04-19T13:50:31.399Z</time></trkpt></trkseg></trk></gpx>